<?xml version="1.0" encoding="UTF-8" standalone="no" ?>
<gpx xmlns="http://www.topografix.com/GPX/1/1" xmlns:xsi="http://www.w3.org/2001/XMLSchema-instance" xsi:schemaLocation="http://www.topografix.com/GPX/1/1 http://www.topografix.com/GPX/1/1/gpx.xsd" version="1.1" creator="VisuGPX - https://www.visugpx.com">
  <metadata>
    <name>TARDEVANT</name>
    <desc><![CDATA[ bonne neige bon ski]]></desc>
  </metadata>
  <trk>
    <name><![CDATA[Tardevant]]></name>
    <cmt><![CDATA[08:42:49]]></cmt>
    <desc><![CDATA[comment ...]]></desc>
    <trkseg>
      <trkpt lat="45.92017" lon="6.48024">
        <ele>1477</ele>
        <time>2013-04-01T08:42:49Z</time>
      </trkpt>
      <trkpt lat="45.92017" lon="6.48024">
        <ele>1429</ele>
        <time>2013-04-01T08:42:50Z</time>
      </trkpt>
      <trkpt lat="45.9202" lon="6.48021">
        <ele>1424</ele>
        <time>2013-04-01T08:43:50Z</time>
      </trkpt>
      <trkpt lat="45.92021" lon="6.4802">
        <ele>1424</ele>
        <time>2013-04-01T08:43:58Z</time>
      </trkpt>
      <trkpt lat="45.92021" lon="6.48023">
        <ele>1418</ele>
        <time>2013-04-01T08:45:10Z</time>
      </trkpt>
      <trkpt lat="45.92021" lon="6.48026">
        <ele>1417</ele>
        <time>2013-04-01T08:45:24Z</time>
      </trkpt>
      <trkpt lat="45.92022" lon="6.48027">
        <ele>1416</ele>
        <time>2013-04-01T08:50:53Z</time>
      </trkpt>
      <trkpt lat="45.92023" lon="6.48029">
        <ele>1416</ele>
        <time>2013-04-01T08:51:23Z</time>
      </trkpt>
      <trkpt lat="45.92022" lon="6.48069">
        <ele>1417</ele>
        <time>2013-04-01T08:52:23Z</time>
      </trkpt>
      <trkpt lat="45.92022" lon="6.48072">
        <ele>1418</ele>
        <time>2013-04-01T08:54:02Z</time>
      </trkpt>
      <trkpt lat="45.92023" lon="6.48074">
        <ele>1419</ele>
        <time>2013-04-01T08:54:05Z</time>
      </trkpt>
      <trkpt lat="45.92026" lon="6.48088">
        <ele>1419</ele>
        <time>2013-04-01T08:54:29Z</time>
      </trkpt>
      <trkpt lat="45.92026" lon="6.48094">
        <ele>1419</ele>
        <time>2013-04-01T08:54:44Z</time>
      </trkpt>
      <trkpt lat="45.92026" lon="6.48097">
        <ele>1419</ele>
        <time>2013-04-01T08:54:47Z</time>
      </trkpt>
      <trkpt lat="45.92027" lon="6.48101">
        <ele>1418</ele>
        <time>2013-04-01T08:55:02Z</time>
      </trkpt>
      <trkpt lat="45.92027" lon="6.48104">
        <ele>1418</ele>
        <time>2013-04-01T08:55:04Z</time>
      </trkpt>
      <trkpt lat="45.92031" lon="6.48146">
        <ele>1415</ele>
        <time>2013-04-01T08:55:34Z</time>
      </trkpt>
      <trkpt lat="45.9203" lon="6.48182">
        <ele>1416</ele>
        <time>2013-04-01T08:56:05Z</time>
      </trkpt>
      <trkpt lat="45.92033" lon="6.48212">
        <ele>1422</ele>
        <time>2013-04-01T08:56:36Z</time>
      </trkpt>
      <trkpt lat="45.92034" lon="6.48215">
        <ele>1422</ele>
        <time>2013-04-01T08:56:38Z</time>
      </trkpt>
      <trkpt lat="45.92032" lon="6.48245">
        <ele>1430</ele>
        <time>2013-04-01T08:57:12Z</time>
      </trkpt>
      <trkpt lat="45.92034" lon="6.48269">
        <ele>1434</ele>
        <time>2013-04-01T08:57:45Z</time>
      </trkpt>
      <trkpt lat="45.92033" lon="6.48272">
        <ele>1434</ele>
        <time>2013-04-01T08:58:02Z</time>
      </trkpt>
      <trkpt lat="45.92035" lon="6.48285">
        <ele>1433</ele>
        <time>2013-04-01T08:58:12Z</time>
      </trkpt>
      <trkpt lat="45.92034" lon="6.48288">
        <ele>1432</ele>
        <time>2013-04-01T08:58:15Z</time>
      </trkpt>
      <trkpt lat="45.92034" lon="6.48291">
        <ele>1434</ele>
        <time>2013-04-01T08:58:49Z</time>
      </trkpt>
      <trkpt lat="45.92033" lon="6.48327">
        <ele>1436</ele>
        <time>2013-04-01T08:59:20Z</time>
      </trkpt>
      <trkpt lat="45.92033" lon="6.48335">
        <ele>1438</ele>
        <time>2013-04-01T08:59:29Z</time>
      </trkpt>
      <trkpt lat="45.92031" lon="6.48361">
        <ele>1443</ele>
        <time>2013-04-01T08:59:59Z</time>
      </trkpt>
      <trkpt lat="45.9203" lon="6.4839">
        <ele>1445</ele>
        <time>2013-04-01T09:00:30Z</time>
      </trkpt>
      <trkpt lat="45.92028" lon="6.48414">
        <ele>1450</ele>
        <time>2013-04-01T09:01:03Z</time>
      </trkpt>
      <trkpt lat="45.92032" lon="6.48439">
        <ele>1453</ele>
        <time>2013-04-01T09:01:54Z</time>
      </trkpt>
      <trkpt lat="45.92035" lon="6.48474">
        <ele>1454</ele>
        <time>2013-04-01T09:02:25Z</time>
      </trkpt>
      <trkpt lat="45.92037" lon="6.48503">
        <ele>1459</ele>
        <time>2013-04-01T09:02:59Z</time>
      </trkpt>
      <trkpt lat="45.92029" lon="6.48524">
        <ele>1462</ele>
        <time>2013-04-01T09:03:25Z</time>
      </trkpt>
      <trkpt lat="45.92028" lon="6.48525">
        <ele>1461</ele>
        <time>2013-04-01T09:03:27Z</time>
      </trkpt>
      <trkpt lat="45.92027" lon="6.4855">
        <ele>1464</ele>
        <time>2013-04-01T09:03:57Z</time>
      </trkpt>
      <trkpt lat="45.92027" lon="6.48552">
        <ele>1464</ele>
        <time>2013-04-01T09:03:59Z</time>
      </trkpt>
      <trkpt lat="45.92032" lon="6.48566">
        <ele>1467</ele>
        <time>2013-04-01T09:04:21Z</time>
      </trkpt>
      <trkpt lat="45.92037" lon="6.48575">
        <ele>1471</ele>
        <time>2013-04-01T09:04:51Z</time>
      </trkpt>
      <trkpt lat="45.92042" lon="6.48607">
        <ele>1473</ele>
        <time>2013-04-01T09:05:23Z</time>
      </trkpt>
      <trkpt lat="45.92043" lon="6.4861">
        <ele>1476</ele>
        <time>2013-04-01T09:05:29Z</time>
      </trkpt>
      <trkpt lat="45.92045" lon="6.48612">
        <ele>1478</ele>
        <time>2013-04-01T09:05:33Z</time>
      </trkpt>
      <trkpt lat="45.92046" lon="6.48616">
        <ele>1480</ele>
        <time>2013-04-01T09:05:39Z</time>
      </trkpt>
      <trkpt lat="45.92059" lon="6.48624">
        <ele>1484</ele>
        <time>2013-04-01T09:06:04Z</time>
      </trkpt>
      <trkpt lat="45.92061" lon="6.48623">
        <ele>1486</ele>
        <time>2013-04-01T09:07:36Z</time>
      </trkpt>
      <trkpt lat="45.92062" lon="6.48623">
        <ele>1486</ele>
        <time>2013-04-01T09:07:38Z</time>
      </trkpt>
      <trkpt lat="45.92066" lon="6.48625">
        <ele>1486</ele>
        <time>2013-04-01T09:07:43Z</time>
      </trkpt>
      <trkpt lat="45.92065" lon="6.48627">
        <ele>1482</ele>
        <time>2013-04-01T09:07:51Z</time>
      </trkpt>
      <trkpt lat="45.92065" lon="6.48629">
        <ele>1482</ele>
        <time>2013-04-01T09:08:08Z</time>
      </trkpt>
      <trkpt lat="45.92058" lon="6.48682">
        <ele>1483</ele>
        <time>2013-04-01T09:08:39Z</time>
      </trkpt>
      <trkpt lat="45.92046" lon="6.48757">
        <ele>1473</ele>
        <time>2013-04-01T09:09:09Z</time>
      </trkpt>
      <trkpt lat="45.92045" lon="6.48768">
        <ele>1472</ele>
        <time>2013-04-01T09:09:14Z</time>
      </trkpt>
      <trkpt lat="45.92051" lon="6.48783">
        <ele>1473</ele>
        <time>2013-04-01T09:09:25Z</time>
      </trkpt>
      <trkpt lat="45.9207" lon="6.4882">
        <ele>1472</ele>
        <time>2013-04-01T09:09:55Z</time>
      </trkpt>
      <trkpt lat="45.92095" lon="6.48856">
        <ele>1463</ele>
        <time>2013-04-01T09:10:25Z</time>
      </trkpt>
      <trkpt lat="45.92111" lon="6.48879">
        <ele>1460</ele>
        <time>2013-04-01T09:10:55Z</time>
      </trkpt>
      <trkpt lat="45.92121" lon="6.48889">
        <ele>1461</ele>
        <time>2013-04-01T09:11:07Z</time>
      </trkpt>
      <trkpt lat="45.9212" lon="6.48892">
        <ele>1460</ele>
        <time>2013-04-01T09:11:16Z</time>
      </trkpt>
      <trkpt lat="45.92121" lon="6.48894">
        <ele>1460</ele>
        <time>2013-04-01T09:11:18Z</time>
      </trkpt>
      <trkpt lat="45.92149" lon="6.48932">
        <ele>1454</ele>
        <time>2013-04-01T09:11:48Z</time>
      </trkpt>
      <trkpt lat="45.92172" lon="6.48945">
        <ele>1451</ele>
        <time>2013-04-01T09:12:20Z</time>
      </trkpt>
      <trkpt lat="45.9219" lon="6.48963">
        <ele>1455</ele>
        <time>2013-04-01T09:12:50Z</time>
      </trkpt>
      <trkpt lat="45.92197" lon="6.48972">
        <ele>1457</ele>
        <time>2013-04-01T09:13:07Z</time>
      </trkpt>
      <trkpt lat="45.92211" lon="6.4898">
        <ele>1458</ele>
        <time>2013-04-01T09:13:37Z</time>
      </trkpt>
      <trkpt lat="45.92229" lon="6.48996">
        <ele>1459</ele>
        <time>2013-04-01T09:14:07Z</time>
      </trkpt>
      <trkpt lat="45.92253" lon="6.49017">
        <ele>1456</ele>
        <time>2013-04-01T09:14:39Z</time>
      </trkpt>
      <trkpt lat="45.92256" lon="6.49019">
        <ele>1458</ele>
        <time>2013-04-01T09:14:45Z</time>
      </trkpt>
      <trkpt lat="45.92269" lon="6.49037">
        <ele>1457</ele>
        <time>2013-04-01T09:15:16Z</time>
      </trkpt>
      <trkpt lat="45.92292" lon="6.49058">
        <ele>1457</ele>
        <time>2013-04-01T09:15:47Z</time>
      </trkpt>
      <trkpt lat="45.92302" lon="6.49066">
        <ele>1458</ele>
        <time>2013-04-01T09:16:03Z</time>
      </trkpt>
      <trkpt lat="45.92306" lon="6.49069">
        <ele>1461</ele>
        <time>2013-04-01T09:16:10Z</time>
      </trkpt>
      <trkpt lat="45.92313" lon="6.49072">
        <ele>1466</ele>
        <time>2013-04-01T09:16:23Z</time>
      </trkpt>
      <trkpt lat="45.9233" lon="6.49088">
        <ele>1467</ele>
        <time>2013-04-01T09:16:53Z</time>
      </trkpt>
      <trkpt lat="45.92335" lon="6.49093">
        <ele>1469</ele>
        <time>2013-04-01T09:17:00Z</time>
      </trkpt>
      <trkpt lat="45.92337" lon="6.49092">
        <ele>1471</ele>
        <time>2013-04-01T09:17:06Z</time>
      </trkpt>
      <trkpt lat="45.92338" lon="6.49093">
        <ele>1472</ele>
        <time>2013-04-01T09:17:14Z</time>
      </trkpt>
      <trkpt lat="45.92357" lon="6.4911">
        <ele>1479</ele>
        <time>2013-04-01T09:17:44Z</time>
      </trkpt>
      <trkpt lat="45.92372" lon="6.49117">
        <ele>1484</ele>
        <time>2013-04-01T09:18:03Z</time>
      </trkpt>
      <trkpt lat="45.9238" lon="6.49113">
        <ele>1484</ele>
        <time>2013-04-01T09:18:17Z</time>
      </trkpt>
      <trkpt lat="45.92385" lon="6.49109">
        <ele>1487</ele>
        <time>2013-04-01T09:18:26Z</time>
      </trkpt>
      <trkpt lat="45.92402" lon="6.49101">
        <ele>1490</ele>
        <time>2013-04-01T09:18:56Z</time>
      </trkpt>
      <trkpt lat="45.92421" lon="6.49115">
        <ele>1490</ele>
        <time>2013-04-01T09:19:29Z</time>
      </trkpt>
      <trkpt lat="45.92425" lon="6.49114">
        <ele>1492</ele>
        <time>2013-04-01T09:19:39Z</time>
      </trkpt>
      <trkpt lat="45.92429" lon="6.49114">
        <ele>1492</ele>
        <time>2013-04-01T09:19:44Z</time>
      </trkpt>
      <trkpt lat="45.9243" lon="6.49116">
        <ele>1493</ele>
        <time>2013-04-01T09:19:46Z</time>
      </trkpt>
      <trkpt lat="45.92434" lon="6.49117">
        <ele>1494</ele>
        <time>2013-04-01T09:19:53Z</time>
      </trkpt>
      <trkpt lat="45.92449" lon="6.49138">
        <ele>1495</ele>
        <time>2013-04-01T09:20:26Z</time>
      </trkpt>
      <trkpt lat="45.92455" lon="6.49143">
        <ele>1496</ele>
        <time>2013-04-01T09:20:37Z</time>
      </trkpt>
      <trkpt lat="45.9246" lon="6.49145">
        <ele>1498</ele>
        <time>2013-04-01T09:21:10Z</time>
      </trkpt>
      <trkpt lat="45.92462" lon="6.49145">
        <ele>1499</ele>
        <time>2013-04-01T09:21:13Z</time>
      </trkpt>
      <trkpt lat="45.92477" lon="6.49164">
        <ele>1499</ele>
        <time>2013-04-01T09:21:50Z</time>
      </trkpt>
      <trkpt lat="45.92506" lon="6.49187">
        <ele>1500</ele>
        <time>2013-04-01T09:22:21Z</time>
      </trkpt>
      <trkpt lat="45.9253" lon="6.49204">
        <ele>1501</ele>
        <time>2013-04-01T09:22:51Z</time>
      </trkpt>
      <trkpt lat="45.9255" lon="6.49212">
        <ele>1494</ele>
        <time>2013-04-01T09:23:21Z</time>
      </trkpt>
      <trkpt lat="45.92574" lon="6.49216">
        <ele>1491</ele>
        <time>2013-04-01T09:23:53Z</time>
      </trkpt>
      <trkpt lat="45.92594" lon="6.49222">
        <ele>1488</ele>
        <time>2013-04-01T09:24:17Z</time>
      </trkpt>
      <trkpt lat="45.92597" lon="6.49219">
        <ele>1490</ele>
        <time>2013-04-01T09:24:23Z</time>
      </trkpt>
      <trkpt lat="45.92605" lon="6.4922">
        <ele>1484</ele>
        <time>2013-04-01T09:24:40Z</time>
      </trkpt>
      <trkpt lat="45.92614" lon="6.49228">
        <ele>1485</ele>
        <time>2013-04-01T09:24:54Z</time>
      </trkpt>
      <trkpt lat="45.92622" lon="6.49248">
        <ele>1487</ele>
        <time>2013-04-01T09:25:24Z</time>
      </trkpt>
      <trkpt lat="45.92627" lon="6.49259">
        <ele>1487</ele>
        <time>2013-04-01T09:25:34Z</time>
      </trkpt>
      <trkpt lat="45.92648" lon="6.4927">
        <ele>1484</ele>
        <time>2013-04-01T09:26:05Z</time>
      </trkpt>
      <trkpt lat="45.92671" lon="6.49287">
        <ele>1484</ele>
        <time>2013-04-01T09:26:35Z</time>
      </trkpt>
      <trkpt lat="45.92685" lon="6.49297">
        <ele>1487</ele>
        <time>2013-04-01T09:26:50Z</time>
      </trkpt>
      <trkpt lat="45.92694" lon="6.49307">
        <ele>1487</ele>
        <time>2013-04-01T09:27:06Z</time>
      </trkpt>
      <trkpt lat="45.92696" lon="6.49316">
        <ele>1487</ele>
        <time>2013-04-01T09:27:15Z</time>
      </trkpt>
      <trkpt lat="45.92701" lon="6.49338">
        <ele>1488</ele>
        <time>2013-04-01T09:27:32Z</time>
      </trkpt>
      <trkpt lat="45.92722" lon="6.49374">
        <ele>1491</ele>
        <time>2013-04-01T09:28:03Z</time>
      </trkpt>
      <trkpt lat="45.92726" lon="6.49382">
        <ele>1490</ele>
        <time>2013-04-01T09:28:11Z</time>
      </trkpt>
      <trkpt lat="45.92726" lon="6.49397">
        <ele>1488</ele>
        <time>2013-04-01T09:28:24Z</time>
      </trkpt>
      <trkpt lat="45.9272" lon="6.49421">
        <ele>1490</ele>
        <time>2013-04-01T09:34:52Z</time>
      </trkpt>
      <trkpt lat="45.92719" lon="6.49422">
        <ele>1490</ele>
        <time>2013-04-01T09:34:55Z</time>
      </trkpt>
      <trkpt lat="45.92719" lon="6.49425">
        <ele>1490</ele>
        <time>2013-04-01T09:35:02Z</time>
      </trkpt>
      <trkpt lat="45.92718" lon="6.49426">
        <ele>1490</ele>
        <time>2013-04-01T09:35:08Z</time>
      </trkpt>
      <trkpt lat="45.9271" lon="6.49438">
        <ele>1488</ele>
        <time>2013-04-01T09:35:26Z</time>
      </trkpt>
      <trkpt lat="45.92677" lon="6.49466">
        <ele>1478</ele>
        <time>2013-04-01T09:35:57Z</time>
      </trkpt>
      <trkpt lat="45.92663" lon="6.49488">
        <ele>1475</ele>
        <time>2013-04-01T09:36:25Z</time>
      </trkpt>
      <trkpt lat="45.92663" lon="6.49491">
        <ele>1476</ele>
        <time>2013-04-01T09:36:28Z</time>
      </trkpt>
      <trkpt lat="45.92664" lon="6.49495">
        <ele>1476</ele>
        <time>2013-04-01T09:36:45Z</time>
      </trkpt>
      <trkpt lat="45.9266" lon="6.49517">
        <ele>1475</ele>
        <time>2013-04-01T09:37:02Z</time>
      </trkpt>
      <trkpt lat="45.92649" lon="6.49544">
        <ele>1472</ele>
        <time>2013-04-01T09:37:35Z</time>
      </trkpt>
      <trkpt lat="45.92649" lon="6.49546">
        <ele>1473</ele>
        <time>2013-04-01T09:37:38Z</time>
      </trkpt>
      <trkpt lat="45.92649" lon="6.49549">
        <ele>1474</ele>
        <time>2013-04-01T09:37:41Z</time>
      </trkpt>
      <trkpt lat="45.9265" lon="6.49551">
        <ele>1474</ele>
        <time>2013-04-01T09:37:43Z</time>
      </trkpt>
      <trkpt lat="45.9265" lon="6.49554">
        <ele>1477</ele>
        <time>2013-04-01T09:37:46Z</time>
      </trkpt>
      <trkpt lat="45.92646" lon="6.4956">
        <ele>1473</ele>
        <time>2013-04-01T09:37:51Z</time>
      </trkpt>
      <trkpt lat="45.92642" lon="6.49572">
        <ele>1472</ele>
        <time>2013-04-01T09:38:04Z</time>
      </trkpt>
      <trkpt lat="45.92641" lon="6.49574">
        <ele>1476</ele>
        <time>2013-04-01T09:38:07Z</time>
      </trkpt>
      <trkpt lat="45.9264" lon="6.49598">
        <ele>1481</ele>
        <time>2013-04-01T09:38:32Z</time>
      </trkpt>
      <trkpt lat="45.92638" lon="6.496">
        <ele>1481</ele>
        <time>2013-04-01T09:38:40Z</time>
      </trkpt>
      <trkpt lat="45.92639" lon="6.49602">
        <ele>1483</ele>
        <time>2013-04-01T09:38:47Z</time>
      </trkpt>
      <trkpt lat="45.92636" lon="6.49618">
        <ele>1481</ele>
        <time>2013-04-01T09:39:03Z</time>
      </trkpt>
      <trkpt lat="45.92635" lon="6.4962">
        <ele>1480</ele>
        <time>2013-04-01T09:39:05Z</time>
      </trkpt>
      <trkpt lat="45.92626" lon="6.49645">
        <ele>1484</ele>
        <time>2013-04-01T09:39:37Z</time>
      </trkpt>
      <trkpt lat="45.92622" lon="6.49671">
        <ele>1490</ele>
        <time>2013-04-01T09:40:07Z</time>
      </trkpt>
      <trkpt lat="45.92621" lon="6.49677">
        <ele>1493</ele>
        <time>2013-04-01T09:40:13Z</time>
      </trkpt>
      <trkpt lat="45.92624" lon="6.49696">
        <ele>1496</ele>
        <time>2013-04-01T09:40:33Z</time>
      </trkpt>
      <trkpt lat="45.92628" lon="6.49708">
        <ele>1498</ele>
        <time>2013-04-01T09:40:41Z</time>
      </trkpt>
      <trkpt lat="45.92641" lon="6.49733">
        <ele>1505</ele>
        <time>2013-04-01T09:41:16Z</time>
      </trkpt>
      <trkpt lat="45.92642" lon="6.49734">
        <ele>1506</ele>
        <time>2013-04-01T09:41:20Z</time>
      </trkpt>
      <trkpt lat="45.92652" lon="6.49759">
        <ele>1509</ele>
        <time>2013-04-01T09:41:50Z</time>
      </trkpt>
      <trkpt lat="45.92654" lon="6.49776">
        <ele>1513</ele>
        <time>2013-04-01T09:42:08Z</time>
      </trkpt>
      <trkpt lat="45.92655" lon="6.49779">
        <ele>1513</ele>
        <time>2013-04-01T09:42:19Z</time>
      </trkpt>
      <trkpt lat="45.92655" lon="6.49781">
        <ele>1511</ele>
        <time>2013-04-01T09:42:36Z</time>
      </trkpt>
      <trkpt lat="45.92657" lon="6.4979">
        <ele>1511</ele>
        <time>2013-04-01T09:42:42Z</time>
      </trkpt>
      <trkpt lat="45.92659" lon="6.49793">
        <ele>1511</ele>
        <time>2013-04-01T09:42:45Z</time>
      </trkpt>
      <trkpt lat="45.92661" lon="6.49795">
        <ele>1512</ele>
        <time>2013-04-01T09:42:49Z</time>
      </trkpt>
      <trkpt lat="45.92662" lon="6.49797">
        <ele>1514</ele>
        <time>2013-04-01T09:42:54Z</time>
      </trkpt>
      <trkpt lat="45.92667" lon="6.49829">
        <ele>1518</ele>
        <time>2013-04-01T09:43:24Z</time>
      </trkpt>
      <trkpt lat="45.92669" lon="6.49835">
        <ele>1518</ele>
        <time>2013-04-01T09:43:30Z</time>
      </trkpt>
      <trkpt lat="45.9267" lon="6.49842">
        <ele>1519</ele>
        <time>2013-04-01T09:43:39Z</time>
      </trkpt>
      <trkpt lat="45.92669" lon="6.49846">
        <ele>1519</ele>
        <time>2013-04-01T09:43:44Z</time>
      </trkpt>
      <trkpt lat="45.92669" lon="6.49857">
        <ele>1520</ele>
        <time>2013-04-01T09:43:57Z</time>
      </trkpt>
      <trkpt lat="45.92667" lon="6.49877">
        <ele>1523</ele>
        <time>2013-04-01T09:44:31Z</time>
      </trkpt>
      <trkpt lat="45.92668" lon="6.49879">
        <ele>1523</ele>
        <time>2013-04-01T09:44:34Z</time>
      </trkpt>
      <trkpt lat="45.92669" lon="6.49899">
        <ele>1527</ele>
        <time>2013-04-01T09:45:04Z</time>
      </trkpt>
      <trkpt lat="45.92667" lon="6.49919">
        <ele>1526</ele>
        <time>2013-04-01T09:45:34Z</time>
      </trkpt>
      <trkpt lat="45.92666" lon="6.49933">
        <ele>1528</ele>
        <time>2013-04-01T09:45:54Z</time>
      </trkpt>
      <trkpt lat="45.92668" lon="6.49933">
        <ele>1529</ele>
        <time>2013-04-01T09:46:02Z</time>
      </trkpt>
      <trkpt lat="45.9267" lon="6.49936">
        <ele>1530</ele>
        <time>2013-04-01T09:46:18Z</time>
      </trkpt>
      <trkpt lat="45.92669" lon="6.49947">
        <ele>1531</ele>
        <time>2013-04-01T09:46:31Z</time>
      </trkpt>
      <trkpt lat="45.9267" lon="6.4996">
        <ele>1534</ele>
        <time>2013-04-01T09:46:49Z</time>
      </trkpt>
      <trkpt lat="45.92671" lon="6.49973">
        <ele>1534</ele>
        <time>2013-04-01T09:47:19Z</time>
      </trkpt>
      <trkpt lat="45.92669" lon="6.49989">
        <ele>1534</ele>
        <time>2013-04-01T09:47:43Z</time>
      </trkpt>
      <trkpt lat="45.92673" lon="6.50012">
        <ele>1538</ele>
        <time>2013-04-01T09:48:16Z</time>
      </trkpt>
      <trkpt lat="45.92674" lon="6.50028">
        <ele>1540</ele>
        <time>2013-04-01T09:48:37Z</time>
      </trkpt>
      <trkpt lat="45.92674" lon="6.50033">
        <ele>1542</ele>
        <time>2013-04-01T09:50:55Z</time>
      </trkpt>
      <trkpt lat="45.92675" lon="6.50036">
        <ele>1542</ele>
        <time>2013-04-01T09:50:57Z</time>
      </trkpt>
      <trkpt lat="45.92678" lon="6.50043">
        <ele>1542</ele>
        <time>2013-04-01T09:51:10Z</time>
      </trkpt>
      <trkpt lat="45.92684" lon="6.50046">
        <ele>1548</ele>
        <time>2013-04-01T09:51:23Z</time>
      </trkpt>
      <trkpt lat="45.92683" lon="6.50049">
        <ele>1546</ele>
        <time>2013-04-01T09:51:29Z</time>
      </trkpt>
      <trkpt lat="45.9269" lon="6.50066">
        <ele>1547</ele>
        <time>2013-04-01T09:52:03Z</time>
      </trkpt>
      <trkpt lat="45.92689" lon="6.50069">
        <ele>1548</ele>
        <time>2013-04-01T09:52:31Z</time>
      </trkpt>
      <trkpt lat="45.9269" lon="6.50072">
        <ele>1551</ele>
        <time>2013-04-01T09:52:38Z</time>
      </trkpt>
      <trkpt lat="45.92692" lon="6.50089">
        <ele>1558</ele>
        <time>2013-04-01T09:53:05Z</time>
      </trkpt>
      <trkpt lat="45.92694" lon="6.50093">
        <ele>1557</ele>
        <time>2013-04-01T09:53:11Z</time>
      </trkpt>
      <trkpt lat="45.92704" lon="6.50098">
        <ele>1560</ele>
        <time>2013-04-01T09:53:26Z</time>
      </trkpt>
      <trkpt lat="45.92709" lon="6.50096">
        <ele>1565</ele>
        <time>2013-04-01T09:53:43Z</time>
      </trkpt>
      <trkpt lat="45.9271" lon="6.50097">
        <ele>1563</ele>
        <time>2013-04-01T09:53:54Z</time>
      </trkpt>
      <trkpt lat="45.9271" lon="6.50099">
        <ele>1561</ele>
        <time>2013-04-01T09:54:02Z</time>
      </trkpt>
      <trkpt lat="45.92714" lon="6.50102">
        <ele>1561</ele>
        <time>2013-04-01T09:54:09Z</time>
      </trkpt>
      <trkpt lat="45.92714" lon="6.50104">
        <ele>1560</ele>
        <time>2013-04-01T09:54:14Z</time>
      </trkpt>
      <trkpt lat="45.92716" lon="6.5011">
        <ele>1559</ele>
        <time>2013-04-01T09:54:34Z</time>
      </trkpt>
      <trkpt lat="45.92717" lon="6.50115">
        <ele>1558</ele>
        <time>2013-04-01T09:54:49Z</time>
      </trkpt>
      <trkpt lat="45.92718" lon="6.50129">
        <ele>1558</ele>
        <time>2013-04-01T09:55:02Z</time>
      </trkpt>
      <trkpt lat="45.92721" lon="6.50131">
        <ele>1560</ele>
        <time>2013-04-01T09:55:09Z</time>
      </trkpt>
      <trkpt lat="45.9272" lon="6.50133">
        <ele>1561</ele>
        <time>2013-04-01T09:55:19Z</time>
      </trkpt>
      <trkpt lat="45.92719" lon="6.50135">
        <ele>1562</ele>
        <time>2013-04-01T09:55:22Z</time>
      </trkpt>
      <trkpt lat="45.92719" lon="6.50143">
        <ele>1566</ele>
        <time>2013-04-01T09:55:53Z</time>
      </trkpt>
      <trkpt lat="45.92715" lon="6.5015">
        <ele>1570</ele>
        <time>2013-04-01T09:56:05Z</time>
      </trkpt>
      <trkpt lat="45.92716" lon="6.50152">
        <ele>1572</ele>
        <time>2013-04-01T09:56:13Z</time>
      </trkpt>
      <trkpt lat="45.92714" lon="6.50154">
        <ele>1573</ele>
        <time>2013-04-01T09:56:19Z</time>
      </trkpt>
      <trkpt lat="45.92714" lon="6.50156">
        <ele>1574</ele>
        <time>2013-04-01T09:56:26Z</time>
      </trkpt>
      <trkpt lat="45.92713" lon="6.50161">
        <ele>1578</ele>
        <time>2013-04-01T09:56:40Z</time>
      </trkpt>
      <trkpt lat="45.9271" lon="6.5017">
        <ele>1581</ele>
        <time>2013-04-01T09:57:13Z</time>
      </trkpt>
      <trkpt lat="45.92709" lon="6.50172">
        <ele>1582</ele>
        <time>2013-04-01T09:57:18Z</time>
      </trkpt>
      <trkpt lat="45.92711" lon="6.50183">
        <ele>1584</ele>
        <time>2013-04-01T09:57:50Z</time>
      </trkpt>
      <trkpt lat="45.92711" lon="6.50185">
        <ele>1584</ele>
        <time>2013-04-01T09:57:55Z</time>
      </trkpt>
      <trkpt lat="45.92712" lon="6.5019">
        <ele>1584</ele>
        <time>2013-04-01T09:57:59Z</time>
      </trkpt>
      <trkpt lat="45.92712" lon="6.50193">
        <ele>1586</ele>
        <time>2013-04-01T09:58:02Z</time>
      </trkpt>
      <trkpt lat="45.92713" lon="6.50195">
        <ele>1588</ele>
        <time>2013-04-01T09:58:07Z</time>
      </trkpt>
      <trkpt lat="45.92713" lon="6.50198">
        <ele>1587</ele>
        <time>2013-04-01T09:58:17Z</time>
      </trkpt>
      <trkpt lat="45.92713" lon="6.50201">
        <ele>1587</ele>
        <time>2013-04-01T09:58:46Z</time>
      </trkpt>
      <trkpt lat="45.9271" lon="6.50205">
        <ele>1587</ele>
        <time>2013-04-01T09:58:49Z</time>
      </trkpt>
      <trkpt lat="45.92709" lon="6.5021">
        <ele>1590</ele>
        <time>2013-04-01T09:58:52Z</time>
      </trkpt>
      <trkpt lat="45.92707" lon="6.50212">
        <ele>1591</ele>
        <time>2013-04-01T09:58:55Z</time>
      </trkpt>
      <trkpt lat="45.92704" lon="6.50213">
        <ele>1593</ele>
        <time>2013-04-01T09:58:58Z</time>
      </trkpt>
      <trkpt lat="45.92701" lon="6.50214">
        <ele>1595</ele>
        <time>2013-04-01T09:59:02Z</time>
      </trkpt>
      <trkpt lat="45.92699" lon="6.50215">
        <ele>1595</ele>
        <time>2013-04-01T09:59:30Z</time>
      </trkpt>
      <trkpt lat="45.92697" lon="6.50215">
        <ele>1596</ele>
        <time>2013-04-01T09:59:59Z</time>
      </trkpt>
      <trkpt lat="45.92689" lon="6.50215">
        <ele>1600</ele>
        <time>2013-04-01T10:00:04Z</time>
      </trkpt>
      <trkpt lat="45.92688" lon="6.50215">
        <ele>1600</ele>
        <time>2013-04-01T10:00:05Z</time>
      </trkpt>
      <trkpt lat="45.92682" lon="6.50215">
        <ele>1599</ele>
        <time>2013-04-01T10:00:12Z</time>
      </trkpt>
      <trkpt lat="45.92681" lon="6.50219">
        <ele>1602</ele>
        <time>2013-04-01T10:00:32Z</time>
      </trkpt>
      <trkpt lat="45.92682" lon="6.50221">
        <ele>1602</ele>
        <time>2013-04-01T10:00:36Z</time>
      </trkpt>
      <trkpt lat="45.92683" lon="6.50225">
        <ele>1604</ele>
        <time>2013-04-01T10:00:55Z</time>
      </trkpt>
      <trkpt lat="45.92684" lon="6.50229">
        <ele>1605</ele>
        <time>2013-04-01T10:03:29Z</time>
      </trkpt>
      <trkpt lat="45.92685" lon="6.50232">
        <ele>1606</ele>
        <time>2013-04-01T10:03:31Z</time>
      </trkpt>
      <trkpt lat="45.92686" lon="6.50237">
        <ele>1605</ele>
        <time>2013-04-01T10:03:38Z</time>
      </trkpt>
      <trkpt lat="45.92692" lon="6.50245">
        <ele>1610</ele>
        <time>2013-04-01T10:03:52Z</time>
      </trkpt>
      <trkpt lat="45.92699" lon="6.50259">
        <ele>1608</ele>
        <time>2013-04-01T10:04:19Z</time>
      </trkpt>
      <trkpt lat="45.92697" lon="6.50262">
        <ele>1610</ele>
        <time>2013-04-01T10:05:15Z</time>
      </trkpt>
      <trkpt lat="45.92695" lon="6.50262">
        <ele>1612</ele>
        <time>2013-04-01T10:05:17Z</time>
      </trkpt>
      <trkpt lat="45.92693" lon="6.50261">
        <ele>1614</ele>
        <time>2013-04-01T10:05:19Z</time>
      </trkpt>
      <trkpt lat="45.92691" lon="6.50262">
        <ele>1615</ele>
        <time>2013-04-01T10:05:33Z</time>
      </trkpt>
      <trkpt lat="45.9269" lon="6.50264">
        <ele>1616</ele>
        <time>2013-04-01T10:05:49Z</time>
      </trkpt>
      <trkpt lat="45.92691" lon="6.50267">
        <ele>1619</ele>
        <time>2013-04-01T10:05:56Z</time>
      </trkpt>
      <trkpt lat="45.92695" lon="6.50273">
        <ele>1622</ele>
        <time>2013-04-01T10:06:28Z</time>
      </trkpt>
      <trkpt lat="45.92696" lon="6.50275">
        <ele>1623</ele>
        <time>2013-04-01T10:06:42Z</time>
      </trkpt>
      <trkpt lat="45.92703" lon="6.50281">
        <ele>1627</ele>
        <time>2013-04-01T10:07:31Z</time>
      </trkpt>
      <trkpt lat="45.92705" lon="6.50283">
        <ele>1626</ele>
        <time>2013-04-01T10:07:33Z</time>
      </trkpt>
      <trkpt lat="45.92712" lon="6.50297">
        <ele>1628</ele>
        <time>2013-04-01T10:07:48Z</time>
      </trkpt>
      <trkpt lat="45.92715" lon="6.50297">
        <ele>1632</ele>
        <time>2013-04-01T10:07:54Z</time>
      </trkpt>
      <trkpt lat="45.92716" lon="6.50303">
        <ele>1637</ele>
        <time>2013-04-01T10:08:19Z</time>
      </trkpt>
      <trkpt lat="45.92717" lon="6.50306">
        <ele>1639</ele>
        <time>2013-04-01T10:08:31Z</time>
      </trkpt>
      <trkpt lat="45.92718" lon="6.50306">
        <ele>1640</ele>
        <time>2013-04-01T10:08:47Z</time>
      </trkpt>
      <trkpt lat="45.92719" lon="6.50308">
        <ele>1641</ele>
        <time>2013-04-01T10:08:55Z</time>
      </trkpt>
      <trkpt lat="45.92728" lon="6.50321">
        <ele>1645</ele>
        <time>2013-04-01T10:09:26Z</time>
      </trkpt>
      <trkpt lat="45.92729" lon="6.50323">
        <ele>1645</ele>
        <time>2013-04-01T10:09:29Z</time>
      </trkpt>
      <trkpt lat="45.9273" lon="6.50325">
        <ele>1646</ele>
        <time>2013-04-01T10:09:33Z</time>
      </trkpt>
      <trkpt lat="45.92729" lon="6.50327">
        <ele>1647</ele>
        <time>2013-04-01T10:09:42Z</time>
      </trkpt>
      <trkpt lat="45.92726" lon="6.50331">
        <ele>1650</ele>
        <time>2013-04-01T10:09:53Z</time>
      </trkpt>
      <trkpt lat="45.92721" lon="6.50339">
        <ele>1655</ele>
        <time>2013-04-01T10:10:20Z</time>
      </trkpt>
      <trkpt lat="45.9272" lon="6.50341">
        <ele>1657</ele>
        <time>2013-04-01T10:10:25Z</time>
      </trkpt>
      <trkpt lat="45.92721" lon="6.50348">
        <ele>1659</ele>
        <time>2013-04-01T10:10:49Z</time>
      </trkpt>
      <trkpt lat="45.92722" lon="6.50355">
        <ele>1660</ele>
        <time>2013-04-01T10:11:04Z</time>
      </trkpt>
      <trkpt lat="45.92722" lon="6.50357">
        <ele>1662</ele>
        <time>2013-04-01T10:11:10Z</time>
      </trkpt>
      <trkpt lat="45.92723" lon="6.50361">
        <ele>1662</ele>
        <time>2013-04-01T10:11:29Z</time>
      </trkpt>
      <trkpt lat="45.92723" lon="6.50364">
        <ele>1663</ele>
        <time>2013-04-01T10:11:45Z</time>
      </trkpt>
      <trkpt lat="45.92723" lon="6.50366">
        <ele>1664</ele>
        <time>2013-04-01T10:11:50Z</time>
      </trkpt>
      <trkpt lat="45.92724" lon="6.50368">
        <ele>1664</ele>
        <time>2013-04-01T10:11:57Z</time>
      </trkpt>
      <trkpt lat="45.92724" lon="6.5037">
        <ele>1664</ele>
        <time>2013-04-01T10:12:02Z</time>
      </trkpt>
      <trkpt lat="45.92725" lon="6.50372">
        <ele>1666</ele>
        <time>2013-04-01T10:12:06Z</time>
      </trkpt>
      <trkpt lat="45.92727" lon="6.50376">
        <ele>1666</ele>
        <time>2013-04-01T10:12:15Z</time>
      </trkpt>
      <trkpt lat="45.9273" lon="6.50382">
        <ele>1667</ele>
        <time>2013-04-01T10:12:40Z</time>
      </trkpt>
      <trkpt lat="45.92731" lon="6.50384">
        <ele>1667</ele>
        <time>2013-04-01T10:12:43Z</time>
      </trkpt>
      <trkpt lat="45.92732" lon="6.50386">
        <ele>1667</ele>
        <time>2013-04-01T10:12:46Z</time>
      </trkpt>
      <trkpt lat="45.92732" lon="6.50388">
        <ele>1667</ele>
        <time>2013-04-01T10:12:49Z</time>
      </trkpt>
      <trkpt lat="45.92734" lon="6.50394">
        <ele>1668</ele>
        <time>2013-04-01T10:12:56Z</time>
      </trkpt>
      <trkpt lat="45.92735" lon="6.50397">
        <ele>1668</ele>
        <time>2013-04-01T10:12:58Z</time>
      </trkpt>
      <trkpt lat="45.92736" lon="6.50401">
        <ele>1667</ele>
        <time>2013-04-01T10:13:09Z</time>
      </trkpt>
      <trkpt lat="45.92736" lon="6.50403">
        <ele>1668</ele>
        <time>2013-04-01T10:13:14Z</time>
      </trkpt>
      <trkpt lat="45.92736" lon="6.50406">
        <ele>1668</ele>
        <time>2013-04-01T10:13:17Z</time>
      </trkpt>
      <trkpt lat="45.92736" lon="6.50408">
        <ele>1667</ele>
        <time>2013-04-01T10:13:21Z</time>
      </trkpt>
      <trkpt lat="45.92736" lon="6.5041">
        <ele>1667</ele>
        <time>2013-04-01T10:13:30Z</time>
      </trkpt>
      <trkpt lat="45.92736" lon="6.50413">
        <ele>1667</ele>
        <time>2013-04-01T10:13:33Z</time>
      </trkpt>
      <trkpt lat="45.92737" lon="6.50419">
        <ele>1669</ele>
        <time>2013-04-01T10:13:39Z</time>
      </trkpt>
      <trkpt lat="45.9274" lon="6.50432">
        <ele>1672</ele>
        <time>2013-04-01T10:14:01Z</time>
      </trkpt>
      <trkpt lat="45.92748" lon="6.50454">
        <ele>1676</ele>
        <time>2013-04-01T10:14:32Z</time>
      </trkpt>
      <trkpt lat="45.92749" lon="6.50459">
        <ele>1676</ele>
        <time>2013-04-01T10:14:42Z</time>
      </trkpt>
      <trkpt lat="45.9275" lon="6.50464">
        <ele>1677</ele>
        <time>2013-04-01T10:14:52Z</time>
      </trkpt>
      <trkpt lat="45.92753" lon="6.50469">
        <ele>1680</ele>
        <time>2013-04-01T10:15:00Z</time>
      </trkpt>
      <trkpt lat="45.92754" lon="6.50475">
        <ele>1681</ele>
        <time>2013-04-01T10:15:09Z</time>
      </trkpt>
      <trkpt lat="45.92759" lon="6.50483">
        <ele>1682</ele>
        <time>2013-04-01T10:15:30Z</time>
      </trkpt>
      <trkpt lat="45.92762" lon="6.50486">
        <ele>1682</ele>
        <time>2013-04-01T10:15:36Z</time>
      </trkpt>
      <trkpt lat="45.92784" lon="6.50501">
        <ele>1677</ele>
        <time>2013-04-01T10:16:07Z</time>
      </trkpt>
      <trkpt lat="45.92816" lon="6.5051">
        <ele>1674</ele>
        <time>2013-04-01T10:16:29Z</time>
      </trkpt>
      <trkpt lat="45.92882" lon="6.5049">
        <ele>1660</ele>
        <time>2013-04-01T10:17:00Z</time>
      </trkpt>
      <trkpt lat="45.92883" lon="6.5049">
        <ele>1660</ele>
        <time>2013-04-01T10:17:03Z</time>
      </trkpt>
      <trkpt lat="45.92904" lon="6.50503">
        <ele>1666</ele>
        <time>2013-04-01T10:17:34Z</time>
      </trkpt>
      <trkpt lat="45.92905" lon="6.50507">
        <ele>1667</ele>
        <time>2013-04-01T10:17:40Z</time>
      </trkpt>
      <trkpt lat="45.92913" lon="6.50512">
        <ele>1670</ele>
        <time>2013-04-01T10:18:04Z</time>
      </trkpt>
      <trkpt lat="45.92915" lon="6.50511">
        <ele>1670</ele>
        <time>2013-04-01T10:18:08Z</time>
      </trkpt>
      <trkpt lat="45.9292" lon="6.50515">
        <ele>1672</ele>
        <time>2013-04-01T10:18:17Z</time>
      </trkpt>
      <trkpt lat="45.92922" lon="6.50517">
        <ele>1674</ele>
        <time>2013-04-01T10:19:30Z</time>
      </trkpt>
      <trkpt lat="45.92922" lon="6.50522">
        <ele>1675</ele>
        <time>2013-04-01T10:21:02Z</time>
      </trkpt>
      <trkpt lat="45.92923" lon="6.50526">
        <ele>1673</ele>
        <time>2013-04-01T10:21:06Z</time>
      </trkpt>
      <trkpt lat="45.92929" lon="6.50535">
        <ele>1672</ele>
        <time>2013-04-01T10:21:39Z</time>
      </trkpt>
      <trkpt lat="45.92932" lon="6.5057">
        <ele>1673</ele>
        <time>2013-04-01T10:22:14Z</time>
      </trkpt>
      <trkpt lat="45.92933" lon="6.50575">
        <ele>1673</ele>
        <time>2013-04-01T10:22:19Z</time>
      </trkpt>
      <trkpt lat="45.92934" lon="6.50577">
        <ele>1674</ele>
        <time>2013-04-01T10:22:22Z</time>
      </trkpt>
      <trkpt lat="45.92935" lon="6.5059">
        <ele>1675</ele>
        <time>2013-04-01T10:22:37Z</time>
      </trkpt>
      <trkpt lat="45.92937" lon="6.50602">
        <ele>1678</ele>
        <time>2013-04-01T10:22:53Z</time>
      </trkpt>
      <trkpt lat="45.9294" lon="6.50608">
        <ele>1681</ele>
        <time>2013-04-01T10:22:59Z</time>
      </trkpt>
      <trkpt lat="45.92942" lon="6.50624">
        <ele>1680</ele>
        <time>2013-04-01T10:23:29Z</time>
      </trkpt>
      <trkpt lat="45.92944" lon="6.50643">
        <ele>1683</ele>
        <time>2013-04-01T10:24:00Z</time>
      </trkpt>
      <trkpt lat="45.92945" lon="6.50645">
        <ele>1684</ele>
        <time>2013-04-01T10:24:03Z</time>
      </trkpt>
      <trkpt lat="45.92947" lon="6.50652">
        <ele>1684</ele>
        <time>2013-04-01T10:24:17Z</time>
      </trkpt>
      <trkpt lat="45.92948" lon="6.50653">
        <ele>1684</ele>
        <time>2013-04-01T10:24:22Z</time>
      </trkpt>
      <trkpt lat="45.92951" lon="6.50665">
        <ele>1687</ele>
        <time>2013-04-01T10:24:48Z</time>
      </trkpt>
      <trkpt lat="45.92952" lon="6.5067">
        <ele>1688</ele>
        <time>2013-04-01T10:25:03Z</time>
      </trkpt>
      <trkpt lat="45.92952" lon="6.50674">
        <ele>1689</ele>
        <time>2013-04-01T10:25:12Z</time>
      </trkpt>
      <trkpt lat="45.92957" lon="6.50683">
        <ele>1691</ele>
        <time>2013-04-01T10:25:43Z</time>
      </trkpt>
      <trkpt lat="45.92958" lon="6.50685">
        <ele>1691</ele>
        <time>2013-04-01T10:25:50Z</time>
      </trkpt>
      <trkpt lat="45.92959" lon="6.50692">
        <ele>1692</ele>
        <time>2013-04-01T10:26:05Z</time>
      </trkpt>
      <trkpt lat="45.92964" lon="6.50704">
        <ele>1694</ele>
        <time>2013-04-01T10:26:37Z</time>
      </trkpt>
      <trkpt lat="45.9297" lon="6.5073">
        <ele>1698</ele>
        <time>2013-04-01T10:27:08Z</time>
      </trkpt>
      <trkpt lat="45.92973" lon="6.50739">
        <ele>1700</ele>
        <time>2013-04-01T10:27:20Z</time>
      </trkpt>
      <trkpt lat="45.92978" lon="6.50755">
        <ele>1706</ele>
        <time>2013-04-01T10:27:53Z</time>
      </trkpt>
      <trkpt lat="45.9298" lon="6.50761">
        <ele>1708</ele>
        <time>2013-04-01T10:28:23Z</time>
      </trkpt>
      <trkpt lat="45.9298" lon="6.50763">
        <ele>1709</ele>
        <time>2013-04-01T10:28:26Z</time>
      </trkpt>
      <trkpt lat="45.92981" lon="6.50765">
        <ele>1709</ele>
        <time>2013-04-01T10:28:39Z</time>
      </trkpt>
      <trkpt lat="45.92981" lon="6.50767">
        <ele>1709</ele>
        <time>2013-04-01T10:28:42Z</time>
      </trkpt>
      <trkpt lat="45.92983" lon="6.50772">
        <ele>1708</ele>
        <time>2013-04-01T10:28:48Z</time>
      </trkpt>
      <trkpt lat="45.92984" lon="6.50778">
        <ele>1711</ele>
        <time>2013-04-01T10:28:56Z</time>
      </trkpt>
      <trkpt lat="45.92985" lon="6.5078">
        <ele>1711</ele>
        <time>2013-04-01T10:29:02Z</time>
      </trkpt>
      <trkpt lat="45.92985" lon="6.50782">
        <ele>1712</ele>
        <time>2013-04-01T10:29:11Z</time>
      </trkpt>
      <trkpt lat="45.92989" lon="6.50798">
        <ele>1717</ele>
        <time>2013-04-01T10:29:40Z</time>
      </trkpt>
      <trkpt lat="45.9299" lon="6.508">
        <ele>1717</ele>
        <time>2013-04-01T10:29:43Z</time>
      </trkpt>
      <trkpt lat="45.9299" lon="6.50802">
        <ele>1718</ele>
        <time>2013-04-01T10:29:47Z</time>
      </trkpt>
      <trkpt lat="45.92991" lon="6.50804">
        <ele>1718</ele>
        <time>2013-04-01T10:29:57Z</time>
      </trkpt>
      <trkpt lat="45.92992" lon="6.50806">
        <ele>1720</ele>
        <time>2013-04-01T10:30:03Z</time>
      </trkpt>
      <trkpt lat="45.92993" lon="6.50808">
        <ele>1720</ele>
        <time>2013-04-01T10:30:06Z</time>
      </trkpt>
      <trkpt lat="45.92993" lon="6.5081">
        <ele>1720</ele>
        <time>2013-04-01T10:30:16Z</time>
      </trkpt>
      <trkpt lat="45.92996" lon="6.50817">
        <ele>1722</ele>
        <time>2013-04-01T10:30:31Z</time>
      </trkpt>
      <trkpt lat="45.92997" lon="6.50822">
        <ele>1722</ele>
        <time>2013-04-01T10:30:40Z</time>
      </trkpt>
      <trkpt lat="45.92999" lon="6.50828">
        <ele>1723</ele>
        <time>2013-04-01T10:30:58Z</time>
      </trkpt>
      <trkpt lat="45.93001" lon="6.50835">
        <ele>1724</ele>
        <time>2013-04-01T10:31:09Z</time>
      </trkpt>
      <trkpt lat="45.93002" lon="6.50837">
        <ele>1724</ele>
        <time>2013-04-01T10:31:13Z</time>
      </trkpt>
      <trkpt lat="45.93005" lon="6.50849">
        <ele>1729</ele>
        <time>2013-04-01T10:31:26Z</time>
      </trkpt>
      <trkpt lat="45.93006" lon="6.50854">
        <ele>1730</ele>
        <time>2013-04-01T10:31:39Z</time>
      </trkpt>
      <trkpt lat="45.93007" lon="6.50856">
        <ele>1729</ele>
        <time>2013-04-01T10:31:42Z</time>
      </trkpt>
      <trkpt lat="45.93011" lon="6.50869">
        <ele>1732</ele>
        <time>2013-04-01T10:32:02Z</time>
      </trkpt>
      <trkpt lat="45.93012" lon="6.50871">
        <ele>1733</ele>
        <time>2013-04-01T10:32:08Z</time>
      </trkpt>
      <trkpt lat="45.93013" lon="6.50873">
        <ele>1734</ele>
        <time>2013-04-01T10:32:14Z</time>
      </trkpt>
      <trkpt lat="45.93017" lon="6.50893">
        <ele>1740</ele>
        <time>2013-04-01T10:32:46Z</time>
      </trkpt>
      <trkpt lat="45.93021" lon="6.5091">
        <ele>1746</ele>
        <time>2013-04-01T10:33:24Z</time>
      </trkpt>
      <trkpt lat="45.93022" lon="6.50912">
        <ele>1748</ele>
        <time>2013-04-01T10:33:28Z</time>
      </trkpt>
      <trkpt lat="45.93024" lon="6.50916">
        <ele>1750</ele>
        <time>2013-04-01T10:33:41Z</time>
      </trkpt>
      <trkpt lat="45.93025" lon="6.50917">
        <ele>1751</ele>
        <time>2013-04-01T10:33:51Z</time>
      </trkpt>
      <trkpt lat="45.93025" lon="6.5092">
        <ele>1752</ele>
        <time>2013-04-01T10:33:55Z</time>
      </trkpt>
      <trkpt lat="45.93032" lon="6.50948">
        <ele>1757</ele>
        <time>2013-04-01T10:34:25Z</time>
      </trkpt>
      <trkpt lat="45.93033" lon="6.5095">
        <ele>1757</ele>
        <time>2013-04-01T10:34:28Z</time>
      </trkpt>
      <trkpt lat="45.93034" lon="6.5097">
        <ele>1764</ele>
        <time>2013-04-01T10:34:58Z</time>
      </trkpt>
      <trkpt lat="45.93035" lon="6.50984">
        <ele>1768</ele>
        <time>2013-04-01T10:35:28Z</time>
      </trkpt>
      <trkpt lat="45.93035" lon="6.50987">
        <ele>1770</ele>
        <time>2013-04-01T10:35:34Z</time>
      </trkpt>
      <trkpt lat="45.93037" lon="6.50991">
        <ele>1770</ele>
        <time>2013-04-01T10:35:46Z</time>
      </trkpt>
      <trkpt lat="45.93036" lon="6.50994">
        <ele>1771</ele>
        <time>2013-04-01T10:35:50Z</time>
      </trkpt>
      <trkpt lat="45.93035" lon="6.51009">
        <ele>1773</ele>
        <time>2013-04-01T10:36:20Z</time>
      </trkpt>
      <trkpt lat="45.9303" lon="6.51029">
        <ele>1775</ele>
        <time>2013-04-01T10:36:52Z</time>
      </trkpt>
      <trkpt lat="45.9303" lon="6.51031">
        <ele>1776</ele>
        <time>2013-04-01T10:36:56Z</time>
      </trkpt>
      <trkpt lat="45.93025" lon="6.51049">
        <ele>1781</ele>
        <time>2013-04-01T10:37:27Z</time>
      </trkpt>
      <trkpt lat="45.93022" lon="6.51058">
        <ele>1780</ele>
        <time>2013-04-01T10:37:42Z</time>
      </trkpt>
      <trkpt lat="45.93022" lon="6.51061">
        <ele>1779</ele>
        <time>2013-04-01T10:37:47Z</time>
      </trkpt>
      <trkpt lat="45.93022" lon="6.51063">
        <ele>1781</ele>
        <time>2013-04-01T10:37:51Z</time>
      </trkpt>
      <trkpt lat="45.93021" lon="6.51067">
        <ele>1784</ele>
        <time>2013-04-01T10:48:08Z</time>
      </trkpt>
      <trkpt lat="45.9302" lon="6.51068">
        <ele>1784</ele>
        <time>2013-04-01T10:49:43Z</time>
      </trkpt>
      <trkpt lat="45.93019" lon="6.5107">
        <ele>1785</ele>
        <time>2013-04-01T10:50:45Z</time>
      </trkpt>
      <trkpt lat="45.93016" lon="6.51073">
        <ele>1784</ele>
        <time>2013-04-01T10:50:54Z</time>
      </trkpt>
      <trkpt lat="45.93014" lon="6.51079">
        <ele>1786</ele>
        <time>2013-04-01T10:51:03Z</time>
      </trkpt>
      <trkpt lat="45.93013" lon="6.51081">
        <ele>1788</ele>
        <time>2013-04-01T10:51:09Z</time>
      </trkpt>
      <trkpt lat="45.93003" lon="6.51101">
        <ele>1793</ele>
        <time>2013-04-01T10:51:39Z</time>
      </trkpt>
      <trkpt lat="45.93002" lon="6.51105">
        <ele>1792</ele>
        <time>2013-04-01T10:51:43Z</time>
      </trkpt>
      <trkpt lat="45.93001" lon="6.51108">
        <ele>1793</ele>
        <time>2013-04-01T10:52:13Z</time>
      </trkpt>
      <trkpt lat="45.93" lon="6.51113">
        <ele>1795</ele>
        <time>2013-04-01T10:52:18Z</time>
      </trkpt>
      <trkpt lat="45.93" lon="6.51115">
        <ele>1797</ele>
        <time>2013-04-01T10:52:24Z</time>
      </trkpt>
      <trkpt lat="45.93" lon="6.51121">
        <ele>1798</ele>
        <time>2013-04-01T10:52:54Z</time>
      </trkpt>
      <trkpt lat="45.93" lon="6.51124">
        <ele>1797</ele>
        <time>2013-04-01T10:52:59Z</time>
      </trkpt>
      <trkpt lat="45.93" lon="6.51126">
        <ele>1797</ele>
        <time>2013-04-01T10:53:03Z</time>
      </trkpt>
      <trkpt lat="45.92997" lon="6.51137">
        <ele>1799</ele>
        <time>2013-04-01T10:53:12Z</time>
      </trkpt>
      <trkpt lat="45.92996" lon="6.5114">
        <ele>1799</ele>
        <time>2013-04-01T10:53:14Z</time>
      </trkpt>
      <trkpt lat="45.92995" lon="6.51145">
        <ele>1799</ele>
        <time>2013-04-01T10:53:23Z</time>
      </trkpt>
      <trkpt lat="45.92993" lon="6.51156">
        <ele>1803</ele>
        <time>2013-04-01T10:53:54Z</time>
      </trkpt>
      <trkpt lat="45.92993" lon="6.51159">
        <ele>1804</ele>
        <time>2013-04-01T10:54:00Z</time>
      </trkpt>
      <trkpt lat="45.92992" lon="6.51162">
        <ele>1803</ele>
        <time>2013-04-01T10:54:03Z</time>
      </trkpt>
      <trkpt lat="45.92993" lon="6.51164">
        <ele>1805</ele>
        <time>2013-04-01T10:54:06Z</time>
      </trkpt>
      <trkpt lat="45.9299" lon="6.51173">
        <ele>1805</ele>
        <time>2013-04-01T10:54:28Z</time>
      </trkpt>
      <trkpt lat="45.9299" lon="6.51177">
        <ele>1805</ele>
        <time>2013-04-01T10:54:40Z</time>
      </trkpt>
      <trkpt lat="45.92988" lon="6.51181">
        <ele>1806</ele>
        <time>2013-04-01T10:54:45Z</time>
      </trkpt>
      <trkpt lat="45.92988" lon="6.51183">
        <ele>1806</ele>
        <time>2013-04-01T10:54:50Z</time>
      </trkpt>
      <trkpt lat="45.92988" lon="6.51185">
        <ele>1806</ele>
        <time>2013-04-01T10:54:58Z</time>
      </trkpt>
      <trkpt lat="45.92986" lon="6.51189">
        <ele>1808</ele>
        <time>2013-04-01T10:55:08Z</time>
      </trkpt>
      <trkpt lat="45.92986" lon="6.51192">
        <ele>1810</ele>
        <time>2013-04-01T10:55:11Z</time>
      </trkpt>
      <trkpt lat="45.92986" lon="6.51195">
        <ele>1811</ele>
        <time>2013-04-01T10:55:15Z</time>
      </trkpt>
      <trkpt lat="45.92984" lon="6.51199">
        <ele>1812</ele>
        <time>2013-04-01T10:55:24Z</time>
      </trkpt>
      <trkpt lat="45.92985" lon="6.51201">
        <ele>1813</ele>
        <time>2013-04-01T10:55:29Z</time>
      </trkpt>
      <trkpt lat="45.92984" lon="6.51204">
        <ele>1813</ele>
        <time>2013-04-01T10:55:34Z</time>
      </trkpt>
      <trkpt lat="45.92983" lon="6.51211">
        <ele>1815</ele>
        <time>2013-04-01T10:55:41Z</time>
      </trkpt>
      <trkpt lat="45.9298" lon="6.51219">
        <ele>1817</ele>
        <time>2013-04-01T10:55:53Z</time>
      </trkpt>
      <trkpt lat="45.92976" lon="6.51233">
        <ele>1819</ele>
        <time>2013-04-01T10:56:11Z</time>
      </trkpt>
      <trkpt lat="45.92973" lon="6.51244">
        <ele>1822</ele>
        <time>2013-04-01T10:56:23Z</time>
      </trkpt>
      <trkpt lat="45.92964" lon="6.51259">
        <ele>1824</ele>
        <time>2013-04-01T10:56:46Z</time>
      </trkpt>
      <trkpt lat="45.92962" lon="6.51261">
        <ele>1825</ele>
        <time>2013-04-01T10:56:50Z</time>
      </trkpt>
      <trkpt lat="45.92961" lon="6.51264">
        <ele>1826</ele>
        <time>2013-04-01T10:56:56Z</time>
      </trkpt>
      <trkpt lat="45.92949" lon="6.5128">
        <ele>1827</ele>
        <time>2013-04-01T10:57:27Z</time>
      </trkpt>
      <trkpt lat="45.92938" lon="6.51295">
        <ele>1828</ele>
        <time>2013-04-01T10:57:59Z</time>
      </trkpt>
      <trkpt lat="45.92935" lon="6.51297">
        <ele>1827</ele>
        <time>2013-04-01T10:58:04Z</time>
      </trkpt>
      <trkpt lat="45.92933" lon="6.51302">
        <ele>1835</ele>
        <time>2013-04-01T10:58:19Z</time>
      </trkpt>
      <trkpt lat="45.92934" lon="6.51304">
        <ele>1835</ele>
        <time>2013-04-01T10:58:23Z</time>
      </trkpt>
      <trkpt lat="45.92933" lon="6.51306">
        <ele>1836</ele>
        <time>2013-04-01T10:58:27Z</time>
      </trkpt>
      <trkpt lat="45.92929" lon="6.5131">
        <ele>1836</ele>
        <time>2013-04-01T10:58:35Z</time>
      </trkpt>
      <trkpt lat="45.92924" lon="6.51318">
        <ele>1836</ele>
        <time>2013-04-01T10:58:56Z</time>
      </trkpt>
      <trkpt lat="45.9292" lon="6.51321">
        <ele>1836</ele>
        <time>2013-04-01T10:59:07Z</time>
      </trkpt>
      <trkpt lat="45.9292" lon="6.51323">
        <ele>1837</ele>
        <time>2013-04-01T10:59:12Z</time>
      </trkpt>
      <trkpt lat="45.92919" lon="6.51325">
        <ele>1837</ele>
        <time>2013-04-01T10:59:21Z</time>
      </trkpt>
      <trkpt lat="45.92918" lon="6.51326">
        <ele>1838</ele>
        <time>2013-04-01T10:59:24Z</time>
      </trkpt>
      <trkpt lat="45.92914" lon="6.51329">
        <ele>1839</ele>
        <time>2013-04-01T10:59:34Z</time>
      </trkpt>
      <trkpt lat="45.92913" lon="6.51333">
        <ele>1840</ele>
        <time>2013-04-01T10:59:48Z</time>
      </trkpt>
      <trkpt lat="45.92913" lon="6.51336">
        <ele>1842</ele>
        <time>2013-04-01T10:59:52Z</time>
      </trkpt>
      <trkpt lat="45.92913" lon="6.51338">
        <ele>1842</ele>
        <time>2013-04-01T10:59:57Z</time>
      </trkpt>
      <trkpt lat="45.92911" lon="6.5134">
        <ele>1843</ele>
        <time>2013-04-01T11:00:02Z</time>
      </trkpt>
      <trkpt lat="45.92909" lon="6.51345">
        <ele>1846</ele>
        <time>2013-04-01T11:00:16Z</time>
      </trkpt>
      <trkpt lat="45.92908" lon="6.51347">
        <ele>1846</ele>
        <time>2013-04-01T11:00:20Z</time>
      </trkpt>
      <trkpt lat="45.92904" lon="6.51355">
        <ele>1849</ele>
        <time>2013-04-01T11:00:38Z</time>
      </trkpt>
      <trkpt lat="45.92903" lon="6.51359">
        <ele>1850</ele>
        <time>2013-04-01T11:00:55Z</time>
      </trkpt>
      <trkpt lat="45.92901" lon="6.51365">
        <ele>1852</ele>
        <time>2013-04-01T11:01:13Z</time>
      </trkpt>
      <trkpt lat="45.92899" lon="6.51367">
        <ele>1853</ele>
        <time>2013-04-01T11:01:18Z</time>
      </trkpt>
      <trkpt lat="45.92897" lon="6.51371">
        <ele>1852</ele>
        <time>2013-04-01T11:01:48Z</time>
      </trkpt>
      <trkpt lat="45.92896" lon="6.51373">
        <ele>1853</ele>
        <time>2013-04-01T11:01:51Z</time>
      </trkpt>
      <trkpt lat="45.92894" lon="6.51375">
        <ele>1853</ele>
        <time>2013-04-01T11:01:59Z</time>
      </trkpt>
      <trkpt lat="45.92892" lon="6.51376">
        <ele>1856</ele>
        <time>2013-04-01T11:02:16Z</time>
      </trkpt>
      <trkpt lat="45.92891" lon="6.51378">
        <ele>1856</ele>
        <time>2013-04-01T11:02:20Z</time>
      </trkpt>
      <trkpt lat="45.92891" lon="6.5138">
        <ele>1858</ele>
        <time>2013-04-01T11:02:23Z</time>
      </trkpt>
      <trkpt lat="45.92891" lon="6.51382">
        <ele>1859</ele>
        <time>2013-04-01T11:02:26Z</time>
      </trkpt>
      <trkpt lat="45.9289" lon="6.51384">
        <ele>1861</ele>
        <time>2013-04-01T11:02:28Z</time>
      </trkpt>
      <trkpt lat="45.92888" lon="6.51387">
        <ele>1862</ele>
        <time>2013-04-01T11:02:31Z</time>
      </trkpt>
      <trkpt lat="45.92886" lon="6.51389">
        <ele>1863</ele>
        <time>2013-04-01T11:02:48Z</time>
      </trkpt>
      <trkpt lat="45.92885" lon="6.51394">
        <ele>1862</ele>
        <time>2013-04-01T11:03:11Z</time>
      </trkpt>
      <trkpt lat="45.92883" lon="6.51398">
        <ele>1863</ele>
        <time>2013-04-01T11:03:15Z</time>
      </trkpt>
      <trkpt lat="45.92882" lon="6.514">
        <ele>1863</ele>
        <time>2013-04-01T11:03:16Z</time>
      </trkpt>
      <trkpt lat="45.92881" lon="6.51403">
        <ele>1863</ele>
        <time>2013-04-01T11:03:21Z</time>
      </trkpt>
      <trkpt lat="45.92877" lon="6.51412">
        <ele>1865</ele>
        <time>2013-04-01T11:03:34Z</time>
      </trkpt>
      <trkpt lat="45.92877" lon="6.51415">
        <ele>1867</ele>
        <time>2013-04-01T11:03:37Z</time>
      </trkpt>
      <trkpt lat="45.92875" lon="6.5142">
        <ele>1869</ele>
        <time>2013-04-01T11:03:46Z</time>
      </trkpt>
      <trkpt lat="45.92874" lon="6.51423">
        <ele>1871</ele>
        <time>2013-04-01T11:03:57Z</time>
      </trkpt>
      <trkpt lat="45.92873" lon="6.51424">
        <ele>1872</ele>
        <time>2013-04-01T11:04:01Z</time>
      </trkpt>
      <trkpt lat="45.92871" lon="6.51425">
        <ele>1873</ele>
        <time>2013-04-01T11:04:04Z</time>
      </trkpt>
      <trkpt lat="45.9287" lon="6.51425">
        <ele>1872</ele>
        <time>2013-04-01T11:04:07Z</time>
      </trkpt>
      <trkpt lat="45.92868" lon="6.51427">
        <ele>1872</ele>
        <time>2013-04-01T11:04:12Z</time>
      </trkpt>
      <trkpt lat="45.92865" lon="6.51431">
        <ele>1870</ele>
        <time>2013-04-01T11:04:25Z</time>
      </trkpt>
      <trkpt lat="45.92864" lon="6.51435">
        <ele>1871</ele>
        <time>2013-04-01T11:04:41Z</time>
      </trkpt>
      <trkpt lat="45.92864" lon="6.51437">
        <ele>1871</ele>
        <time>2013-04-01T11:04:45Z</time>
      </trkpt>
      <trkpt lat="45.92864" lon="6.51439">
        <ele>1871</ele>
        <time>2013-04-01T11:05:03Z</time>
      </trkpt>
      <trkpt lat="45.92866" lon="6.51439">
        <ele>1873</ele>
        <time>2013-04-01T11:05:43Z</time>
      </trkpt>
      <trkpt lat="45.92869" lon="6.51439">
        <ele>1874</ele>
        <time>2013-04-01T11:05:48Z</time>
      </trkpt>
      <trkpt lat="45.92872" lon="6.51438">
        <ele>1878</ele>
        <time>2013-04-01T11:05:55Z</time>
      </trkpt>
      <trkpt lat="45.92875" lon="6.51439">
        <ele>1878</ele>
        <time>2013-04-01T11:05:58Z</time>
      </trkpt>
      <trkpt lat="45.92876" lon="6.51442">
        <ele>1879</ele>
        <time>2013-04-01T11:06:02Z</time>
      </trkpt>
      <trkpt lat="45.92875" lon="6.51445">
        <ele>1879</ele>
        <time>2013-04-01T11:06:29Z</time>
      </trkpt>
      <trkpt lat="45.92876" lon="6.51463">
        <ele>1877</ele>
        <time>2013-04-01T11:06:54Z</time>
      </trkpt>
      <trkpt lat="45.92875" lon="6.51465">
        <ele>1878</ele>
        <time>2013-04-01T11:06:59Z</time>
      </trkpt>
      <trkpt lat="45.92875" lon="6.51468">
        <ele>1878</ele>
        <time>2013-04-01T11:07:01Z</time>
      </trkpt>
      <trkpt lat="45.92875" lon="6.51472">
        <ele>1879</ele>
        <time>2013-04-01T11:07:04Z</time>
      </trkpt>
      <trkpt lat="45.92875" lon="6.51478">
        <ele>1883</ele>
        <time>2013-04-01T11:07:10Z</time>
      </trkpt>
      <trkpt lat="45.92876" lon="6.51481">
        <ele>1884</ele>
        <time>2013-04-01T11:07:12Z</time>
      </trkpt>
      <trkpt lat="45.92877" lon="6.51484">
        <ele>1884</ele>
        <time>2013-04-01T11:07:19Z</time>
      </trkpt>
      <trkpt lat="45.92878" lon="6.51485">
        <ele>1885</ele>
        <time>2013-04-01T11:07:49Z</time>
      </trkpt>
      <trkpt lat="45.92878" lon="6.51488">
        <ele>1885</ele>
        <time>2013-04-01T11:07:53Z</time>
      </trkpt>
      <trkpt lat="45.92879" lon="6.5149">
        <ele>1887</ele>
        <time>2013-04-01T11:08:02Z</time>
      </trkpt>
      <trkpt lat="45.9288" lon="6.51493">
        <ele>1888</ele>
        <time>2013-04-01T11:08:30Z</time>
      </trkpt>
      <trkpt lat="45.92884" lon="6.51505">
        <ele>1893</ele>
        <time>2013-04-01T11:08:39Z</time>
      </trkpt>
      <trkpt lat="45.92886" lon="6.51508">
        <ele>1893</ele>
        <time>2013-04-01T11:08:41Z</time>
      </trkpt>
      <trkpt lat="45.92886" lon="6.51511">
        <ele>1893</ele>
        <time>2013-04-01T11:08:45Z</time>
      </trkpt>
      <trkpt lat="45.92889" lon="6.51518">
        <ele>1897</ele>
        <time>2013-04-01T11:08:55Z</time>
      </trkpt>
      <trkpt lat="45.9289" lon="6.51521">
        <ele>1899</ele>
        <time>2013-04-01T11:09:02Z</time>
      </trkpt>
      <trkpt lat="45.9289" lon="6.51523">
        <ele>1899</ele>
        <time>2013-04-01T11:09:20Z</time>
      </trkpt>
      <trkpt lat="45.92892" lon="6.51526">
        <ele>1901</ele>
        <time>2013-04-01T11:09:25Z</time>
      </trkpt>
      <trkpt lat="45.92893" lon="6.51533">
        <ele>1904</ele>
        <time>2013-04-01T11:10:09Z</time>
      </trkpt>
      <trkpt lat="45.92895" lon="6.51537">
        <ele>1904</ele>
        <time>2013-04-01T11:10:17Z</time>
      </trkpt>
      <trkpt lat="45.92895" lon="6.51544">
        <ele>1903</ele>
        <time>2013-04-01T11:10:28Z</time>
      </trkpt>
      <trkpt lat="45.929" lon="6.51559">
        <ele>1906</ele>
        <time>2013-04-01T11:11:07Z</time>
      </trkpt>
      <trkpt lat="45.92899" lon="6.51564">
        <ele>1909</ele>
        <time>2013-04-01T11:11:16Z</time>
      </trkpt>
      <trkpt lat="45.92896" lon="6.51565">
        <ele>1908</ele>
        <time>2013-04-01T11:11:51Z</time>
      </trkpt>
      <trkpt lat="45.92891" lon="6.51571">
        <ele>1907</ele>
        <time>2013-04-01T11:12:07Z</time>
      </trkpt>
      <trkpt lat="45.92891" lon="6.51574">
        <ele>1909</ele>
        <time>2013-04-01T11:12:44Z</time>
      </trkpt>
      <trkpt lat="45.92891" lon="6.51577">
        <ele>1911</ele>
        <time>2013-04-01T11:12:48Z</time>
      </trkpt>
      <trkpt lat="45.92891" lon="6.5158">
        <ele>1913</ele>
        <time>2013-04-01T11:12:54Z</time>
      </trkpt>
      <trkpt lat="45.92891" lon="6.51582">
        <ele>1912</ele>
        <time>2013-04-01T11:13:09Z</time>
      </trkpt>
      <trkpt lat="45.92892" lon="6.51586">
        <ele>1913</ele>
        <time>2013-04-01T11:13:12Z</time>
      </trkpt>
      <trkpt lat="45.92894" lon="6.51605">
        <ele>1918</ele>
        <time>2013-04-01T11:13:21Z</time>
      </trkpt>
      <trkpt lat="45.92893" lon="6.5161">
        <ele>1920</ele>
        <time>2013-04-01T11:13:22Z</time>
      </trkpt>
      <trkpt lat="45.92892" lon="6.51614">
        <ele>1920</ele>
        <time>2013-04-01T11:13:25Z</time>
      </trkpt>
      <trkpt lat="45.92896" lon="6.51625">
        <ele>1921</ele>
        <time>2013-04-01T11:13:34Z</time>
      </trkpt>
      <trkpt lat="45.92896" lon="6.51629">
        <ele>1921</ele>
        <time>2013-04-01T11:13:49Z</time>
      </trkpt>
      <trkpt lat="45.9289" lon="6.5164">
        <ele>1921</ele>
        <time>2013-04-01T11:14:12Z</time>
      </trkpt>
      <trkpt lat="45.92888" lon="6.5164">
        <ele>1926</ele>
        <time>2013-04-01T11:14:53Z</time>
      </trkpt>
      <trkpt lat="45.92884" lon="6.51643">
        <ele>1928</ele>
        <time>2013-04-01T11:14:59Z</time>
      </trkpt>
      <trkpt lat="45.92882" lon="6.51645">
        <ele>1930</ele>
        <time>2013-04-01T11:15:03Z</time>
      </trkpt>
      <trkpt lat="45.92877" lon="6.51645">
        <ele>1935</ele>
        <time>2013-04-01T11:15:09Z</time>
      </trkpt>
      <trkpt lat="45.92876" lon="6.51648">
        <ele>1936</ele>
        <time>2013-04-01T11:16:31Z</time>
      </trkpt>
      <trkpt lat="45.92875" lon="6.51674">
        <ele>1938</ele>
        <time>2013-04-01T11:16:46Z</time>
      </trkpt>
      <trkpt lat="45.92871" lon="6.51677">
        <ele>1940</ele>
        <time>2013-04-01T11:17:08Z</time>
      </trkpt>
      <trkpt lat="45.92859" lon="6.51677">
        <ele>1950</ele>
        <time>2013-04-01T11:17:26Z</time>
      </trkpt>
      <trkpt lat="45.92855" lon="6.51678">
        <ele>1950</ele>
        <time>2013-04-01T11:17:40Z</time>
      </trkpt>
      <trkpt lat="45.92854" lon="6.51676">
        <ele>1952</ele>
        <time>2013-04-01T11:17:52Z</time>
      </trkpt>
      <trkpt lat="45.92851" lon="6.51676">
        <ele>1956</ele>
        <time>2013-04-01T11:18:31Z</time>
      </trkpt>
      <trkpt lat="45.92849" lon="6.51674">
        <ele>1959</ele>
        <time>2013-04-01T11:18:38Z</time>
      </trkpt>
      <trkpt lat="45.92847" lon="6.51676">
        <ele>1955</ele>
        <time>2013-04-01T11:19:08Z</time>
      </trkpt>
      <trkpt lat="45.92843" lon="6.5168">
        <ele>1953</ele>
        <time>2013-04-01T11:19:13Z</time>
      </trkpt>
      <trkpt lat="45.92842" lon="6.51681">
        <ele>1953</ele>
        <time>2013-04-01T11:19:16Z</time>
      </trkpt>
      <trkpt lat="45.9284" lon="6.51683">
        <ele>1955</ele>
        <time>2013-04-01T11:19:26Z</time>
      </trkpt>
      <trkpt lat="45.9284" lon="6.51685">
        <ele>1956</ele>
        <time>2013-04-01T11:19:35Z</time>
      </trkpt>
      <trkpt lat="45.92838" lon="6.51687">
        <ele>1958</ele>
        <time>2013-04-01T11:19:51Z</time>
      </trkpt>
      <trkpt lat="45.92833" lon="6.51687">
        <ele>1959</ele>
        <time>2013-04-01T11:19:57Z</time>
      </trkpt>
      <trkpt lat="45.92829" lon="6.51685">
        <ele>1963</ele>
        <time>2013-04-01T11:20:06Z</time>
      </trkpt>
      <trkpt lat="45.92828" lon="6.51687">
        <ele>1963</ele>
        <time>2013-04-01T11:20:27Z</time>
      </trkpt>
      <trkpt lat="45.92827" lon="6.51687">
        <ele>1964</ele>
        <time>2013-04-01T11:20:56Z</time>
      </trkpt>
      <trkpt lat="45.92821" lon="6.51686">
        <ele>1966</ele>
        <time>2013-04-01T11:21:05Z</time>
      </trkpt>
      <trkpt lat="45.92818" lon="6.51687">
        <ele>1968</ele>
        <time>2013-04-01T11:21:34Z</time>
      </trkpt>
      <trkpt lat="45.92816" lon="6.51688">
        <ele>1967</ele>
        <time>2013-04-01T11:21:41Z</time>
      </trkpt>
      <trkpt lat="45.92753" lon="6.51696">
        <ele>2025</ele>
        <time>2013-04-01T11:23:54Z</time>
      </trkpt>
      <trkpt lat="45.92745" lon="6.51721">
        <ele>2000</ele>
        <time>2013-04-01T11:24:18Z</time>
      </trkpt>
      <trkpt lat="45.92743" lon="6.51727">
        <ele>1997</ele>
        <time>2013-04-01T11:24:38Z</time>
      </trkpt>
      <trkpt lat="45.92736" lon="6.51729">
        <ele>1996</ele>
        <time>2013-04-01T11:25:06Z</time>
      </trkpt>
      <trkpt lat="45.92734" lon="6.51729">
        <ele>1997</ele>
        <time>2013-04-01T11:25:11Z</time>
      </trkpt>
      <trkpt lat="45.92732" lon="6.51729">
        <ele>1998</ele>
        <time>2013-04-01T11:25:14Z</time>
      </trkpt>
      <trkpt lat="45.9273" lon="6.5173">
        <ele>2000</ele>
        <time>2013-04-01T11:25:19Z</time>
      </trkpt>
      <trkpt lat="45.92729" lon="6.51733">
        <ele>2005</ele>
        <time>2013-04-01T11:26:30Z</time>
      </trkpt>
      <trkpt lat="45.92729" lon="6.51735">
        <ele>2007</ele>
        <time>2013-04-01T11:26:33Z</time>
      </trkpt>
      <trkpt lat="45.92729" lon="6.5174">
        <ele>2007</ele>
        <time>2013-04-01T11:26:58Z</time>
      </trkpt>
      <trkpt lat="45.92731" lon="6.51741">
        <ele>2017</ele>
        <time>2013-04-01T11:27:41Z</time>
      </trkpt>
      <trkpt lat="45.92735" lon="6.51775">
        <ele>2014</ele>
        <time>2013-04-01T11:28:06Z</time>
      </trkpt>
      <trkpt lat="45.92734" lon="6.51778">
        <ele>2015</ele>
        <time>2013-04-01T11:28:11Z</time>
      </trkpt>
      <trkpt lat="45.92729" lon="6.51781">
        <ele>2015</ele>
        <time>2013-04-01T11:28:27Z</time>
      </trkpt>
      <trkpt lat="45.92729" lon="6.51783">
        <ele>2014</ele>
        <time>2013-04-01T11:28:29Z</time>
      </trkpt>
      <trkpt lat="45.92728" lon="6.51785">
        <ele>2013</ele>
        <time>2013-04-01T11:28:38Z</time>
      </trkpt>
      <trkpt lat="45.92727" lon="6.51782">
        <ele>2019</ele>
        <time>2013-04-01T11:29:40Z</time>
      </trkpt>
      <trkpt lat="45.92724" lon="6.51779">
        <ele>2024</ele>
        <time>2013-04-01T11:29:53Z</time>
      </trkpt>
      <trkpt lat="45.92724" lon="6.51781">
        <ele>2028</ele>
        <time>2013-04-01T11:30:41Z</time>
      </trkpt>
      <trkpt lat="45.92726" lon="6.51785">
        <ele>2031</ele>
        <time>2013-04-01T11:31:03Z</time>
      </trkpt>
      <trkpt lat="45.92726" lon="6.51788">
        <ele>2029</ele>
        <time>2013-04-01T11:31:05Z</time>
      </trkpt>
      <trkpt lat="45.92727" lon="6.51791">
        <ele>2030</ele>
        <time>2013-04-01T11:31:10Z</time>
      </trkpt>
      <trkpt lat="45.92726" lon="6.51794">
        <ele>2032</ele>
        <time>2013-04-01T11:32:11Z</time>
      </trkpt>
      <trkpt lat="45.92727" lon="6.51809">
        <ele>2030</ele>
        <time>2013-04-01T11:33:43Z</time>
      </trkpt>
      <trkpt lat="45.92724" lon="6.51812">
        <ele>2031</ele>
        <time>2013-04-01T11:34:24Z</time>
      </trkpt>
      <trkpt lat="45.92723" lon="6.51811">
        <ele>2032</ele>
        <time>2013-04-01T11:37:23Z</time>
      </trkpt>
      <trkpt lat="45.92721" lon="6.51813">
        <ele>2034</ele>
        <time>2013-04-01T11:38:52Z</time>
      </trkpt>
      <trkpt lat="45.92721" lon="6.51816">
        <ele>2033</ele>
        <time>2013-04-01T11:39:35Z</time>
      </trkpt>
      <trkpt lat="45.92723" lon="6.51822">
        <ele>2038</ele>
        <time>2013-04-01T11:39:42Z</time>
      </trkpt>
      <trkpt lat="45.92721" lon="6.51825">
        <ele>2044</ele>
        <time>2013-04-01T11:40:15Z</time>
      </trkpt>
      <trkpt lat="45.92717" lon="6.51831">
        <ele>2046</ele>
        <time>2013-04-01T11:40:42Z</time>
      </trkpt>
      <trkpt lat="45.92714" lon="6.5183">
        <ele>2052</ele>
        <time>2013-04-01T11:41:18Z</time>
      </trkpt>
      <trkpt lat="45.92697" lon="6.51829">
        <ele>2054</ele>
        <time>2013-04-01T11:41:58Z</time>
      </trkpt>
      <trkpt lat="45.92695" lon="6.51827">
        <ele>2055</ele>
        <time>2013-04-01T11:42:12Z</time>
      </trkpt>
      <trkpt lat="45.92692" lon="6.51825">
        <ele>2058</ele>
        <time>2013-04-01T11:42:31Z</time>
      </trkpt>
      <trkpt lat="45.9269" lon="6.51823">
        <ele>2067</ele>
        <time>2013-04-01T11:42:54Z</time>
      </trkpt>
      <trkpt lat="45.9269" lon="6.5182">
        <ele>2067</ele>
        <time>2013-04-01T11:42:58Z</time>
      </trkpt>
      <trkpt lat="45.92688" lon="6.51818">
        <ele>2067</ele>
        <time>2013-04-01T11:44:06Z</time>
      </trkpt>
      <trkpt lat="45.92681" lon="6.51816">
        <ele>2065</ele>
        <time>2013-04-01T11:44:38Z</time>
      </trkpt>
      <trkpt lat="45.9267" lon="6.5182">
        <ele>2068</ele>
        <time>2013-04-01T11:45:08Z</time>
      </trkpt>
      <trkpt lat="45.92664" lon="6.51822">
        <ele>2069</ele>
        <time>2013-04-01T11:45:23Z</time>
      </trkpt>
      <trkpt lat="45.92658" lon="6.51826">
        <ele>2072</ele>
        <time>2013-04-01T11:46:25Z</time>
      </trkpt>
      <trkpt lat="45.92656" lon="6.51827">
        <ele>2072</ele>
        <time>2013-04-01T11:46:30Z</time>
      </trkpt>
      <trkpt lat="45.92655" lon="6.51827">
        <ele>2072</ele>
        <time>2013-04-01T11:46:42Z</time>
      </trkpt>
      <trkpt lat="45.92652" lon="6.51828">
        <ele>2074</ele>
        <time>2013-04-01T11:46:45Z</time>
      </trkpt>
      <trkpt lat="45.92649" lon="6.5183">
        <ele>2074</ele>
        <time>2013-04-01T11:46:48Z</time>
      </trkpt>
      <trkpt lat="45.92643" lon="6.51833">
        <ele>2075</ele>
        <time>2013-04-01T11:46:56Z</time>
      </trkpt>
      <trkpt lat="45.92641" lon="6.51834">
        <ele>2076</ele>
        <time>2013-04-01T11:47:05Z</time>
      </trkpt>
      <trkpt lat="45.92639" lon="6.51833">
        <ele>2076</ele>
        <time>2013-04-01T11:47:07Z</time>
      </trkpt>
      <trkpt lat="45.92636" lon="6.51832">
        <ele>2076</ele>
        <time>2013-04-01T11:47:16Z</time>
      </trkpt>
      <trkpt lat="45.92633" lon="6.51835">
        <ele>2076</ele>
        <time>2013-04-01T11:47:48Z</time>
      </trkpt>
      <trkpt lat="45.92632" lon="6.51836">
        <ele>2076</ele>
        <time>2013-04-01T11:47:51Z</time>
      </trkpt>
      <trkpt lat="45.92629" lon="6.51838">
        <ele>2077</ele>
        <time>2013-04-01T11:48:02Z</time>
      </trkpt>
      <trkpt lat="45.92625" lon="6.5184">
        <ele>2077</ele>
        <time>2013-04-01T11:48:14Z</time>
      </trkpt>
      <trkpt lat="45.92618" lon="6.51842">
        <ele>2076</ele>
        <time>2013-04-01T11:48:19Z</time>
      </trkpt>
      <trkpt lat="45.92594" lon="6.51847">
        <ele>2076</ele>
        <time>2013-04-01T11:48:38Z</time>
      </trkpt>
      <trkpt lat="45.92592" lon="6.51848">
        <ele>2077</ele>
        <time>2013-04-01T11:48:40Z</time>
      </trkpt>
      <trkpt lat="45.92591" lon="6.51847">
        <ele>2077</ele>
        <time>2013-04-01T11:48:53Z</time>
      </trkpt>
      <trkpt lat="45.92589" lon="6.51844">
        <ele>2083</ele>
        <time>2013-04-01T11:49:01Z</time>
      </trkpt>
      <trkpt lat="45.92588" lon="6.51842">
        <ele>2085</ele>
        <time>2013-04-01T11:49:31Z</time>
      </trkpt>
      <trkpt lat="45.92585" lon="6.51834">
        <ele>2091</ele>
        <time>2013-04-01T11:49:39Z</time>
      </trkpt>
      <trkpt lat="45.92582" lon="6.51827">
        <ele>2094</ele>
        <time>2013-04-01T11:49:46Z</time>
      </trkpt>
      <trkpt lat="45.92581" lon="6.51825">
        <ele>2095</ele>
        <time>2013-04-01T11:49:48Z</time>
      </trkpt>
      <trkpt lat="45.92577" lon="6.51822">
        <ele>2097</ele>
        <time>2013-04-01T11:50:02Z</time>
      </trkpt>
      <trkpt lat="45.92575" lon="6.51822">
        <ele>2098</ele>
        <time>2013-04-01T11:50:11Z</time>
      </trkpt>
      <trkpt lat="45.92573" lon="6.51822">
        <ele>2098</ele>
        <time>2013-04-01T11:50:46Z</time>
      </trkpt>
      <trkpt lat="45.92571" lon="6.51814">
        <ele>2099</ele>
        <time>2013-04-01T11:50:57Z</time>
      </trkpt>
      <trkpt lat="45.9257" lon="6.51814">
        <ele>2100</ele>
        <time>2013-04-01T11:51:05Z</time>
      </trkpt>
      <trkpt lat="45.92566" lon="6.51814">
        <ele>2107</ele>
        <time>2013-04-01T11:51:20Z</time>
      </trkpt>
      <trkpt lat="45.92561" lon="6.51815">
        <ele>2109</ele>
        <time>2013-04-01T11:51:34Z</time>
      </trkpt>
      <trkpt lat="45.9256" lon="6.51816">
        <ele>2111</ele>
        <time>2013-04-01T11:51:45Z</time>
      </trkpt>
      <trkpt lat="45.92557" lon="6.51822">
        <ele>2114</ele>
        <time>2013-04-01T11:52:00Z</time>
      </trkpt>
      <trkpt lat="45.92554" lon="6.51827">
        <ele>2116</ele>
        <time>2013-04-01T11:52:14Z</time>
      </trkpt>
      <trkpt lat="45.92551" lon="6.51834">
        <ele>2118</ele>
        <time>2013-04-01T11:52:30Z</time>
      </trkpt>
      <trkpt lat="45.9255" lon="6.51836">
        <ele>2118</ele>
        <time>2013-04-01T11:52:40Z</time>
      </trkpt>
      <trkpt lat="45.92548" lon="6.51837">
        <ele>2118</ele>
        <time>2013-04-01T11:52:55Z</time>
      </trkpt>
      <trkpt lat="45.92546" lon="6.51837">
        <ele>2118</ele>
        <time>2013-04-01T11:53:02Z</time>
      </trkpt>
      <trkpt lat="45.92544" lon="6.51841">
        <ele>2118</ele>
        <time>2013-04-01T11:53:08Z</time>
      </trkpt>
      <trkpt lat="45.92534" lon="6.5184">
        <ele>2120</ele>
        <time>2013-04-01T11:53:24Z</time>
      </trkpt>
      <trkpt lat="45.92532" lon="6.51841">
        <ele>2121</ele>
        <time>2013-04-01T11:53:30Z</time>
      </trkpt>
      <trkpt lat="45.92531" lon="6.51841">
        <ele>2122</ele>
        <time>2013-04-01T11:53:42Z</time>
      </trkpt>
      <trkpt lat="45.9253" lon="6.5184">
        <ele>2122</ele>
        <time>2013-04-01T11:53:46Z</time>
      </trkpt>
      <trkpt lat="45.92527" lon="6.51838">
        <ele>2125</ele>
        <time>2013-04-01T11:53:57Z</time>
      </trkpt>
      <trkpt lat="45.92522" lon="6.51834">
        <ele>2130</ele>
        <time>2013-04-01T11:54:29Z</time>
      </trkpt>
      <trkpt lat="45.9252" lon="6.51835">
        <ele>2132</ele>
        <time>2013-04-01T11:54:34Z</time>
      </trkpt>
      <trkpt lat="45.92516" lon="6.51834">
        <ele>2136</ele>
        <time>2013-04-01T11:55:42Z</time>
      </trkpt>
      <trkpt lat="45.92515" lon="6.51835">
        <ele>2140</ele>
        <time>2013-04-01T12:01:18Z</time>
      </trkpt>
      <trkpt lat="45.92513" lon="6.51838">
        <ele>2141</ele>
        <time>2013-04-01T12:01:24Z</time>
      </trkpt>
      <trkpt lat="45.9251" lon="6.51853">
        <ele>2145</ele>
        <time>2013-04-01T12:01:58Z</time>
      </trkpt>
      <trkpt lat="45.92509" lon="6.51862">
        <ele>2148</ele>
        <time>2013-04-01T12:02:28Z</time>
      </trkpt>
      <trkpt lat="45.92505" lon="6.51876">
        <ele>2154</ele>
        <time>2013-04-01T12:03:01Z</time>
      </trkpt>
      <trkpt lat="45.92504" lon="6.51878">
        <ele>2154</ele>
        <time>2013-04-01T12:03:04Z</time>
      </trkpt>
      <trkpt lat="45.92504" lon="6.51888">
        <ele>2159</ele>
        <time>2013-04-01T12:03:34Z</time>
      </trkpt>
      <trkpt lat="45.92503" lon="6.51899">
        <ele>2160</ele>
        <time>2013-04-01T12:04:05Z</time>
      </trkpt>
      <trkpt lat="45.92503" lon="6.51901">
        <ele>2161</ele>
        <time>2013-04-01T12:04:25Z</time>
      </trkpt>
      <trkpt lat="45.92502" lon="6.51904">
        <ele>2162</ele>
        <time>2013-04-01T12:04:31Z</time>
      </trkpt>
      <trkpt lat="45.92501" lon="6.51906">
        <ele>2163</ele>
        <time>2013-04-01T12:04:34Z</time>
      </trkpt>
      <trkpt lat="45.925" lon="6.51911">
        <ele>2164</ele>
        <time>2013-04-01T12:04:40Z</time>
      </trkpt>
      <trkpt lat="45.925" lon="6.51913">
        <ele>2164</ele>
        <time>2013-04-01T12:04:46Z</time>
      </trkpt>
      <trkpt lat="45.92499" lon="6.51916">
        <ele>2164</ele>
        <time>2013-04-01T12:05:13Z</time>
      </trkpt>
      <trkpt lat="45.92499" lon="6.51918">
        <ele>2165</ele>
        <time>2013-04-01T12:05:16Z</time>
      </trkpt>
      <trkpt lat="45.92498" lon="6.51921">
        <ele>2166</ele>
        <time>2013-04-01T12:05:18Z</time>
      </trkpt>
      <trkpt lat="45.92497" lon="6.51923">
        <ele>2166</ele>
        <time>2013-04-01T12:05:22Z</time>
      </trkpt>
      <trkpt lat="45.92498" lon="6.51926">
        <ele>2168</ele>
        <time>2013-04-01T12:05:27Z</time>
      </trkpt>
      <trkpt lat="45.92497" lon="6.51931">
        <ele>2168</ele>
        <time>2013-04-01T12:05:31Z</time>
      </trkpt>
      <trkpt lat="45.92498" lon="6.51933">
        <ele>2170</ele>
        <time>2013-04-01T12:05:34Z</time>
      </trkpt>
      <trkpt lat="45.92493" lon="6.51956">
        <ele>2175</ele>
        <time>2013-04-01T12:06:06Z</time>
      </trkpt>
      <trkpt lat="45.92492" lon="6.51964">
        <ele>2176</ele>
        <time>2013-04-01T12:06:38Z</time>
      </trkpt>
      <trkpt lat="45.9249" lon="6.51974">
        <ele>2176</ele>
        <time>2013-04-01T12:06:58Z</time>
      </trkpt>
      <trkpt lat="45.92491" lon="6.5198">
        <ele>2178</ele>
        <time>2013-04-01T12:07:07Z</time>
      </trkpt>
      <trkpt lat="45.92488" lon="6.51993">
        <ele>2182</ele>
        <time>2013-04-01T12:07:38Z</time>
      </trkpt>
      <trkpt lat="45.92481" lon="6.52011">
        <ele>2182</ele>
        <time>2013-04-01T12:08:12Z</time>
      </trkpt>
      <trkpt lat="45.9248" lon="6.52016">
        <ele>2183</ele>
        <time>2013-04-01T12:08:20Z</time>
      </trkpt>
      <trkpt lat="45.92479" lon="6.52018">
        <ele>2182</ele>
        <time>2013-04-01T12:08:24Z</time>
      </trkpt>
      <trkpt lat="45.92479" lon="6.5202">
        <ele>2182</ele>
        <time>2013-04-01T12:08:27Z</time>
      </trkpt>
      <trkpt lat="45.92478" lon="6.52028">
        <ele>2181</ele>
        <time>2013-04-01T12:08:39Z</time>
      </trkpt>
      <trkpt lat="45.92475" lon="6.52032">
        <ele>2179</ele>
        <time>2013-04-01T12:08:49Z</time>
      </trkpt>
      <trkpt lat="45.92473" lon="6.52034">
        <ele>2178</ele>
        <time>2013-04-01T12:08:51Z</time>
      </trkpt>
      <trkpt lat="45.92473" lon="6.52038">
        <ele>2180</ele>
        <time>2013-04-01T12:08:58Z</time>
      </trkpt>
      <trkpt lat="45.92474" lon="6.52046">
        <ele>2181</ele>
        <time>2013-04-01T12:09:12Z</time>
      </trkpt>
      <trkpt lat="45.92474" lon="6.5205">
        <ele>2182</ele>
        <time>2013-04-01T12:09:19Z</time>
      </trkpt>
      <trkpt lat="45.92472" lon="6.52053">
        <ele>2183</ele>
        <time>2013-04-01T12:09:27Z</time>
      </trkpt>
      <trkpt lat="45.92471" lon="6.52061">
        <ele>2186</ele>
        <time>2013-04-01T12:09:42Z</time>
      </trkpt>
      <trkpt lat="45.92469" lon="6.52064">
        <ele>2185</ele>
        <time>2013-04-01T12:09:53Z</time>
      </trkpt>
      <trkpt lat="45.92467" lon="6.52067">
        <ele>2185</ele>
        <time>2013-04-01T12:10:04Z</time>
      </trkpt>
      <trkpt lat="45.92464" lon="6.52078">
        <ele>2186</ele>
        <time>2013-04-01T12:10:22Z</time>
      </trkpt>
      <trkpt lat="45.92463" lon="6.52081">
        <ele>2186</ele>
        <time>2013-04-01T12:10:25Z</time>
      </trkpt>
      <trkpt lat="45.92456" lon="6.52105">
        <ele>2188</ele>
        <time>2013-04-01T12:10:57Z</time>
      </trkpt>
      <trkpt lat="45.92456" lon="6.5211">
        <ele>2190</ele>
        <time>2013-04-01T12:11:03Z</time>
      </trkpt>
      <trkpt lat="45.92451" lon="6.52121">
        <ele>2191</ele>
        <time>2013-04-01T12:11:21Z</time>
      </trkpt>
      <trkpt lat="45.92449" lon="6.52122">
        <ele>2192</ele>
        <time>2013-04-01T12:11:25Z</time>
      </trkpt>
      <trkpt lat="45.92448" lon="6.52125">
        <ele>2193</ele>
        <time>2013-04-01T12:11:31Z</time>
      </trkpt>
      <trkpt lat="45.92443" lon="6.52145">
        <ele>2199</ele>
        <time>2013-04-01T12:12:02Z</time>
      </trkpt>
      <trkpt lat="45.9244" lon="6.52167">
        <ele>2198</ele>
        <time>2013-04-01T12:12:28Z</time>
      </trkpt>
      <trkpt lat="45.92441" lon="6.52172">
        <ele>2199</ele>
        <time>2013-04-01T12:12:34Z</time>
      </trkpt>
      <trkpt lat="45.9244" lon="6.52186">
        <ele>2202</ele>
        <time>2013-04-01T12:12:51Z</time>
      </trkpt>
      <trkpt lat="45.92442" lon="6.52211">
        <ele>2205</ele>
        <time>2013-04-01T12:13:22Z</time>
      </trkpt>
      <trkpt lat="45.92444" lon="6.52224">
        <ele>2211</ele>
        <time>2013-04-01T12:13:46Z</time>
      </trkpt>
      <trkpt lat="45.92444" lon="6.52226">
        <ele>2214</ele>
        <time>2013-04-01T12:13:50Z</time>
      </trkpt>
      <trkpt lat="45.92443" lon="6.52228">
        <ele>2213</ele>
        <time>2013-04-01T12:13:55Z</time>
      </trkpt>
      <trkpt lat="45.92441" lon="6.52247">
        <ele>2212</ele>
        <time>2013-04-01T12:14:14Z</time>
      </trkpt>
      <trkpt lat="45.92439" lon="6.52256">
        <ele>2216</ele>
        <time>2013-04-01T12:14:29Z</time>
      </trkpt>
      <trkpt lat="45.92437" lon="6.52256">
        <ele>2219</ele>
        <time>2013-04-01T12:14:33Z</time>
      </trkpt>
      <trkpt lat="45.92435" lon="6.52286">
        <ele>2218</ele>
        <time>2013-04-01T12:15:04Z</time>
      </trkpt>
      <trkpt lat="45.92434" lon="6.52291">
        <ele>2218</ele>
        <time>2013-04-01T12:15:09Z</time>
      </trkpt>
      <trkpt lat="45.92432" lon="6.52313">
        <ele>2220</ele>
        <time>2013-04-01T12:15:36Z</time>
      </trkpt>
      <trkpt lat="45.92434" lon="6.52315">
        <ele>2221</ele>
        <time>2013-04-01T12:15:40Z</time>
      </trkpt>
      <trkpt lat="45.92431" lon="6.52327">
        <ele>2222</ele>
        <time>2013-04-01T12:15:57Z</time>
      </trkpt>
      <trkpt lat="45.92433" lon="6.52334">
        <ele>2222</ele>
        <time>2013-04-01T12:16:01Z</time>
      </trkpt>
      <trkpt lat="45.92433" lon="6.52336">
        <ele>2223</ele>
        <time>2013-04-01T12:16:12Z</time>
      </trkpt>
      <trkpt lat="45.92432" lon="6.52338">
        <ele>2224</ele>
        <time>2013-04-01T12:16:19Z</time>
      </trkpt>
      <trkpt lat="45.92432" lon="6.52343">
        <ele>2224</ele>
        <time>2013-04-01T12:16:24Z</time>
      </trkpt>
      <trkpt lat="45.92431" lon="6.52345">
        <ele>2223</ele>
        <time>2013-04-01T12:16:29Z</time>
      </trkpt>
      <trkpt lat="45.92431" lon="6.5235">
        <ele>2223</ele>
        <time>2013-04-01T12:16:39Z</time>
      </trkpt>
      <trkpt lat="45.9243" lon="6.52352">
        <ele>2223</ele>
        <time>2013-04-01T12:16:41Z</time>
      </trkpt>
      <trkpt lat="45.9243" lon="6.52361">
        <ele>2226</ele>
        <time>2013-04-01T12:16:50Z</time>
      </trkpt>
      <trkpt lat="45.92429" lon="6.52364">
        <ele>2227</ele>
        <time>2013-04-01T12:16:54Z</time>
      </trkpt>
      <trkpt lat="45.9243" lon="6.52366">
        <ele>2228</ele>
        <time>2013-04-01T12:17:01Z</time>
      </trkpt>
      <trkpt lat="45.92431" lon="6.52369">
        <ele>2228</ele>
        <time>2013-04-01T12:17:04Z</time>
      </trkpt>
      <trkpt lat="45.92429" lon="6.52375">
        <ele>2231</ele>
        <time>2013-04-01T12:17:11Z</time>
      </trkpt>
      <trkpt lat="45.9243" lon="6.52378">
        <ele>2231</ele>
        <time>2013-04-01T12:17:13Z</time>
      </trkpt>
      <trkpt lat="45.9243" lon="6.52381">
        <ele>2231</ele>
        <time>2013-04-01T12:17:15Z</time>
      </trkpt>
      <trkpt lat="45.92431" lon="6.52386">
        <ele>2234</ele>
        <time>2013-04-01T12:17:20Z</time>
      </trkpt>
      <trkpt lat="45.92429" lon="6.52403">
        <ele>2237</ele>
        <time>2013-04-01T12:17:38Z</time>
      </trkpt>
      <trkpt lat="45.92429" lon="6.52407">
        <ele>2240</ele>
        <time>2013-04-01T12:17:42Z</time>
      </trkpt>
      <trkpt lat="45.92431" lon="6.5241">
        <ele>2244</ele>
        <time>2013-04-01T12:17:48Z</time>
      </trkpt>
      <trkpt lat="45.92432" lon="6.52411">
        <ele>2246</ele>
        <time>2013-04-01T12:17:50Z</time>
      </trkpt>
      <trkpt lat="45.92434" lon="6.52414">
        <ele>2245</ele>
        <time>2013-04-01T12:17:55Z</time>
      </trkpt>
      <trkpt lat="45.92433" lon="6.52416">
        <ele>2246</ele>
        <time>2013-04-01T12:17:58Z</time>
      </trkpt>
      <trkpt lat="45.92432" lon="6.52417">
        <ele>2245</ele>
        <time>2013-04-01T12:18:04Z</time>
      </trkpt>
      <trkpt lat="45.92432" lon="6.5242">
        <ele>2245</ele>
        <time>2013-04-01T12:18:16Z</time>
      </trkpt>
      <trkpt lat="45.92432" lon="6.52425">
        <ele>2246</ele>
        <time>2013-04-01T12:18:23Z</time>
      </trkpt>
      <trkpt lat="45.92431" lon="6.52427">
        <ele>2246</ele>
        <time>2013-04-01T12:18:26Z</time>
      </trkpt>
      <trkpt lat="45.9243" lon="6.52428">
        <ele>2249</ele>
        <time>2013-04-01T12:18:29Z</time>
      </trkpt>
      <trkpt lat="45.9243" lon="6.52431">
        <ele>2246</ele>
        <time>2013-04-01T12:18:33Z</time>
      </trkpt>
      <trkpt lat="45.92431" lon="6.52435">
        <ele>2248</ele>
        <time>2013-04-01T12:18:48Z</time>
      </trkpt>
      <trkpt lat="45.92432" lon="6.5244">
        <ele>2250</ele>
        <time>2013-04-01T12:19:02Z</time>
      </trkpt>
      <trkpt lat="45.92432" lon="6.52445">
        <ele>2251</ele>
        <time>2013-04-01T12:19:18Z</time>
      </trkpt>
      <trkpt lat="45.92431" lon="6.52449">
        <ele>2253</ele>
        <time>2013-04-01T12:19:27Z</time>
      </trkpt>
      <trkpt lat="45.92433" lon="6.52451">
        <ele>2257</ele>
        <time>2013-04-01T12:19:32Z</time>
      </trkpt>
      <trkpt lat="45.92432" lon="6.52456">
        <ele>2254</ele>
        <time>2013-04-01T12:19:40Z</time>
      </trkpt>
      <trkpt lat="45.92433" lon="6.52461">
        <ele>2255</ele>
        <time>2013-04-01T12:19:42Z</time>
      </trkpt>
      <trkpt lat="45.92434" lon="6.52469">
        <ele>2257</ele>
        <time>2013-04-01T12:21:29Z</time>
      </trkpt>
      <trkpt lat="45.92429" lon="6.52473">
        <ele>2256</ele>
        <time>2013-04-01T12:21:43Z</time>
      </trkpt>
      <trkpt lat="45.92429" lon="6.52475">
        <ele>2257</ele>
        <time>2013-04-01T12:22:39Z</time>
      </trkpt>
      <trkpt lat="45.9243" lon="6.5248">
        <ele>2260</ele>
        <time>2013-04-01T12:22:46Z</time>
      </trkpt>
      <trkpt lat="45.92427" lon="6.52487">
        <ele>2256</ele>
        <time>2013-04-01T12:22:52Z</time>
      </trkpt>
      <trkpt lat="45.92428" lon="6.52489">
        <ele>2258</ele>
        <time>2013-04-01T12:22:55Z</time>
      </trkpt>
      <trkpt lat="45.92427" lon="6.52492">
        <ele>2259</ele>
        <time>2013-04-01T12:23:00Z</time>
      </trkpt>
      <trkpt lat="45.92426" lon="6.52494">
        <ele>2256</ele>
        <time>2013-04-01T12:23:07Z</time>
      </trkpt>
      <trkpt lat="45.92426" lon="6.52497">
        <ele>2256</ele>
        <time>2013-04-01T12:23:12Z</time>
      </trkpt>
      <trkpt lat="45.92424" lon="6.52499">
        <ele>2257</ele>
        <time>2013-04-01T12:23:27Z</time>
      </trkpt>
      <trkpt lat="45.92423" lon="6.52501">
        <ele>2259</ele>
        <time>2013-04-01T12:23:39Z</time>
      </trkpt>
      <trkpt lat="45.92419" lon="6.52518">
        <ele>2259</ele>
        <time>2013-04-01T12:24:10Z</time>
      </trkpt>
      <trkpt lat="45.92419" lon="6.52521">
        <ele>2259</ele>
        <time>2013-04-01T12:24:14Z</time>
      </trkpt>
      <trkpt lat="45.92419" lon="6.52524">
        <ele>2261</ele>
        <time>2013-04-01T12:24:20Z</time>
      </trkpt>
      <trkpt lat="45.92418" lon="6.52527">
        <ele>2263</ele>
        <time>2013-04-01T12:24:28Z</time>
      </trkpt>
      <trkpt lat="45.92418" lon="6.52529">
        <ele>2265</ele>
        <time>2013-04-01T12:24:52Z</time>
      </trkpt>
      <trkpt lat="45.92419" lon="6.52531">
        <ele>2266</ele>
        <time>2013-04-01T12:24:55Z</time>
      </trkpt>
      <trkpt lat="45.9242" lon="6.52533">
        <ele>2264</ele>
        <time>2013-04-01T12:24:58Z</time>
      </trkpt>
      <trkpt lat="45.9242" lon="6.52536">
        <ele>2265</ele>
        <time>2013-04-01T12:25:11Z</time>
      </trkpt>
      <trkpt lat="45.92417" lon="6.52546">
        <ele>2267</ele>
        <time>2013-04-01T12:25:30Z</time>
      </trkpt>
      <trkpt lat="45.92416" lon="6.52549">
        <ele>2267</ele>
        <time>2013-04-01T12:25:54Z</time>
      </trkpt>
      <trkpt lat="45.92415" lon="6.52551">
        <ele>2268</ele>
        <time>2013-04-01T12:25:57Z</time>
      </trkpt>
      <trkpt lat="45.92414" lon="6.52554">
        <ele>2267</ele>
        <time>2013-04-01T12:25:59Z</time>
      </trkpt>
      <trkpt lat="45.92412" lon="6.52558">
        <ele>2270</ele>
        <time>2013-04-01T12:26:09Z</time>
      </trkpt>
      <trkpt lat="45.92412" lon="6.52565">
        <ele>2272</ele>
        <time>2013-04-01T12:26:18Z</time>
      </trkpt>
      <trkpt lat="45.92411" lon="6.52567">
        <ele>2274</ele>
        <time>2013-04-01T12:26:24Z</time>
      </trkpt>
      <trkpt lat="45.92409" lon="6.52568">
        <ele>2274</ele>
        <time>2013-04-01T12:26:29Z</time>
      </trkpt>
      <trkpt lat="45.92409" lon="6.5257">
        <ele>2270</ele>
        <time>2013-04-01T12:26:37Z</time>
      </trkpt>
      <trkpt lat="45.92407" lon="6.52571">
        <ele>2271</ele>
        <time>2013-04-01T12:26:39Z</time>
      </trkpt>
      <trkpt lat="45.92403" lon="6.52577">
        <ele>2271</ele>
        <time>2013-04-01T12:26:53Z</time>
      </trkpt>
      <trkpt lat="45.92403" lon="6.5258">
        <ele>2269</ele>
        <time>2013-04-01T12:26:56Z</time>
      </trkpt>
      <trkpt lat="45.92402" lon="6.52581">
        <ele>2267</ele>
        <time>2013-04-01T12:27:00Z</time>
      </trkpt>
      <trkpt lat="45.92404" lon="6.52587">
        <ele>2270</ele>
        <time>2013-04-01T12:27:18Z</time>
      </trkpt>
      <trkpt lat="45.92405" lon="6.52589">
        <ele>2271</ele>
        <time>2013-04-01T12:27:25Z</time>
      </trkpt>
      <trkpt lat="45.92406" lon="6.52595">
        <ele>2274</ele>
        <time>2013-04-01T12:27:29Z</time>
      </trkpt>
      <trkpt lat="45.92407" lon="6.52597">
        <ele>2276</ele>
        <time>2013-04-01T12:27:33Z</time>
      </trkpt>
      <trkpt lat="45.92408" lon="6.52599">
        <ele>2276</ele>
        <time>2013-04-01T12:27:38Z</time>
      </trkpt>
      <trkpt lat="45.9241" lon="6.52601">
        <ele>2277</ele>
        <time>2013-04-01T12:27:42Z</time>
      </trkpt>
      <trkpt lat="45.92411" lon="6.52605">
        <ele>2278</ele>
        <time>2013-04-01T12:27:48Z</time>
      </trkpt>
      <trkpt lat="45.92412" lon="6.52607">
        <ele>2280</ele>
        <time>2013-04-01T12:27:53Z</time>
      </trkpt>
      <trkpt lat="45.92412" lon="6.52609">
        <ele>2278</ele>
        <time>2013-04-01T12:27:58Z</time>
      </trkpt>
      <trkpt lat="45.92411" lon="6.52615">
        <ele>2279</ele>
        <time>2013-04-01T12:28:03Z</time>
      </trkpt>
      <trkpt lat="45.92412" lon="6.52617">
        <ele>2282</ele>
        <time>2013-04-01T12:28:05Z</time>
      </trkpt>
      <trkpt lat="45.92414" lon="6.52618">
        <ele>2284</ele>
        <time>2013-04-01T12:28:08Z</time>
      </trkpt>
      <trkpt lat="45.92415" lon="6.52621">
        <ele>2284</ele>
        <time>2013-04-01T12:28:12Z</time>
      </trkpt>
      <trkpt lat="45.92413" lon="6.52627">
        <ele>2285</ele>
        <time>2013-04-01T12:28:35Z</time>
      </trkpt>
      <trkpt lat="45.9241" lon="6.52627">
        <ele>2285</ele>
        <time>2013-04-01T12:28:37Z</time>
      </trkpt>
      <trkpt lat="45.92409" lon="6.52628">
        <ele>2284</ele>
        <time>2013-04-01T12:28:39Z</time>
      </trkpt>
      <trkpt lat="45.92407" lon="6.52631">
        <ele>2283</ele>
        <time>2013-04-01T12:28:43Z</time>
      </trkpt>
      <trkpt lat="45.92409" lon="6.52636">
        <ele>2282</ele>
        <time>2013-04-01T12:29:16Z</time>
      </trkpt>
      <trkpt lat="45.92414" lon="6.52639">
        <ele>2281</ele>
        <time>2013-04-01T12:29:53Z</time>
      </trkpt>
      <trkpt lat="45.92416" lon="6.52641">
        <ele>2282</ele>
        <time>2013-04-01T12:30:10Z</time>
      </trkpt>
      <trkpt lat="45.92418" lon="6.52649">
        <ele>2283</ele>
        <time>2013-04-01T12:30:39Z</time>
      </trkpt>
      <trkpt lat="45.9242" lon="6.52651">
        <ele>2286</ele>
        <time>2013-04-01T12:30:44Z</time>
      </trkpt>
      <trkpt lat="45.92421" lon="6.52656">
        <ele>2283</ele>
        <time>2013-04-01T12:30:52Z</time>
      </trkpt>
      <trkpt lat="45.92419" lon="6.5266">
        <ele>2285</ele>
        <time>2013-04-01T12:31:09Z</time>
      </trkpt>
      <trkpt lat="45.92418" lon="6.52662">
        <ele>2289</ele>
        <time>2013-04-01T12:31:28Z</time>
      </trkpt>
      <trkpt lat="45.92419" lon="6.52665">
        <ele>2291</ele>
        <time>2013-04-01T12:32:36Z</time>
      </trkpt>
      <trkpt lat="45.92421" lon="6.52669">
        <ele>2292</ele>
        <time>2013-04-01T12:33:22Z</time>
      </trkpt>
      <trkpt lat="45.92424" lon="6.52673">
        <ele>2292</ele>
        <time>2013-04-01T12:33:27Z</time>
      </trkpt>
      <trkpt lat="45.92427" lon="6.52676">
        <ele>2294</ele>
        <time>2013-04-01T12:34:33Z</time>
      </trkpt>
      <trkpt lat="45.92424" lon="6.5268">
        <ele>2299</ele>
        <time>2013-04-01T12:34:41Z</time>
      </trkpt>
      <trkpt lat="45.92422" lon="6.52681">
        <ele>2299</ele>
        <time>2013-04-01T12:34:44Z</time>
      </trkpt>
      <trkpt lat="45.92422" lon="6.52683">
        <ele>2302</ele>
        <time>2013-04-01T12:35:00Z</time>
      </trkpt>
      <trkpt lat="45.92421" lon="6.52685">
        <ele>2303</ele>
        <time>2013-04-01T12:35:10Z</time>
      </trkpt>
      <trkpt lat="45.92419" lon="6.52685">
        <ele>2304</ele>
        <time>2013-04-01T12:36:44Z</time>
      </trkpt>
      <trkpt lat="45.92415" lon="6.52688">
        <ele>2305</ele>
        <time>2013-04-01T12:36:53Z</time>
      </trkpt>
      <trkpt lat="45.92414" lon="6.52684">
        <ele>2303</ele>
        <time>2013-04-01T12:37:06Z</time>
      </trkpt>
      <trkpt lat="45.92416" lon="6.52687">
        <ele>2293</ele>
        <time>2013-04-01T12:38:17Z</time>
      </trkpt>
      <trkpt lat="45.92418" lon="6.5269">
        <ele>2295</ele>
        <time>2013-04-01T12:38:26Z</time>
      </trkpt>
      <trkpt lat="45.92418" lon="6.52694">
        <ele>2301</ele>
        <time>2013-04-01T12:38:54Z</time>
      </trkpt>
      <trkpt lat="45.92419" lon="6.52696">
        <ele>2302</ele>
        <time>2013-04-01T12:38:58Z</time>
      </trkpt>
      <trkpt lat="45.92419" lon="6.52701">
        <ele>2303</ele>
        <time>2013-04-01T12:39:05Z</time>
      </trkpt>
      <trkpt lat="45.92419" lon="6.52703">
        <ele>2306</ele>
        <time>2013-04-01T12:39:11Z</time>
      </trkpt>
      <trkpt lat="45.92416" lon="6.52707">
        <ele>2306</ele>
        <time>2013-04-01T12:39:30Z</time>
      </trkpt>
      <trkpt lat="45.92416" lon="6.52704">
        <ele>2306</ele>
        <time>2013-04-01T12:40:30Z</time>
      </trkpt>
      <trkpt lat="45.92423" lon="6.52697">
        <ele>2306</ele>
        <time>2013-04-01T12:40:35Z</time>
      </trkpt>
      <trkpt lat="45.92422" lon="6.52701">
        <ele>2310</ele>
        <time>2013-04-01T12:41:26Z</time>
      </trkpt>
      <trkpt lat="45.92418" lon="6.52703">
        <ele>2311</ele>
        <time>2013-04-01T12:42:01Z</time>
      </trkpt>
      <trkpt lat="45.92411" lon="6.52705">
        <ele>2308</ele>
        <time>2013-04-01T12:42:10Z</time>
      </trkpt>
      <trkpt lat="45.92412" lon="6.52709">
        <ele>2310</ele>
        <time>2013-04-01T12:42:45Z</time>
      </trkpt>
      <trkpt lat="45.92412" lon="6.52713">
        <ele>2314</ele>
        <time>2013-04-01T12:42:54Z</time>
      </trkpt>
      <trkpt lat="45.92411" lon="6.52716">
        <ele>2312</ele>
        <time>2013-04-01T12:43:10Z</time>
      </trkpt>
      <trkpt lat="45.92411" lon="6.52718">
        <ele>2312</ele>
        <time>2013-04-01T12:43:18Z</time>
      </trkpt>
      <trkpt lat="45.92412" lon="6.5272">
        <ele>2312</ele>
        <time>2013-04-01T12:43:26Z</time>
      </trkpt>
      <trkpt lat="45.92414" lon="6.52722">
        <ele>2312</ele>
        <time>2013-04-01T12:43:29Z</time>
      </trkpt>
      <trkpt lat="45.92415" lon="6.52723">
        <ele>2313</ele>
        <time>2013-04-01T12:43:31Z</time>
      </trkpt>
      <trkpt lat="45.92416" lon="6.52724">
        <ele>2314</ele>
        <time>2013-04-01T12:43:47Z</time>
      </trkpt>
      <trkpt lat="45.92418" lon="6.52725">
        <ele>2314</ele>
        <time>2013-04-01T12:43:56Z</time>
      </trkpt>
      <trkpt lat="45.92418" lon="6.52727">
        <ele>2314</ele>
        <time>2013-04-01T12:44:11Z</time>
      </trkpt>
      <trkpt lat="45.92419" lon="6.5273">
        <ele>2316</ele>
        <time>2013-04-01T12:44:37Z</time>
      </trkpt>
      <trkpt lat="45.92419" lon="6.52732">
        <ele>2316</ele>
        <time>2013-04-01T12:44:41Z</time>
      </trkpt>
      <trkpt lat="45.92419" lon="6.52736">
        <ele>2317</ele>
        <time>2013-04-01T12:44:49Z</time>
      </trkpt>
      <trkpt lat="45.92418" lon="6.52739">
        <ele>2317</ele>
        <time>2013-04-01T12:44:53Z</time>
      </trkpt>
      <trkpt lat="45.92417" lon="6.52743">
        <ele>2317</ele>
        <time>2013-04-01T12:45:07Z</time>
      </trkpt>
      <trkpt lat="45.92418" lon="6.52745">
        <ele>2315</ele>
        <time>2013-04-01T12:45:12Z</time>
      </trkpt>
      <trkpt lat="45.92418" lon="6.52747">
        <ele>2317</ele>
        <time>2013-04-01T12:45:23Z</time>
      </trkpt>
      <trkpt lat="45.92418" lon="6.5275">
        <ele>2316</ele>
        <time>2013-04-01T12:45:26Z</time>
      </trkpt>
      <trkpt lat="45.92417" lon="6.52752">
        <ele>2315</ele>
        <time>2013-04-01T12:45:30Z</time>
      </trkpt>
      <trkpt lat="45.92418" lon="6.52754">
        <ele>2314</ele>
        <time>2013-04-01T12:45:36Z</time>
      </trkpt>
      <trkpt lat="45.92418" lon="6.52756">
        <ele>2313</ele>
        <time>2013-04-01T12:45:42Z</time>
      </trkpt>
      <trkpt lat="45.92418" lon="6.52759">
        <ele>2314</ele>
        <time>2013-04-01T12:45:50Z</time>
      </trkpt>
      <trkpt lat="45.92419" lon="6.5277">
        <ele>2315</ele>
        <time>2013-04-01T12:46:05Z</time>
      </trkpt>
      <trkpt lat="45.92416" lon="6.52775">
        <ele>2318</ele>
        <time>2013-04-01T12:46:32Z</time>
      </trkpt>
      <trkpt lat="45.92415" lon="6.52779">
        <ele>2322</ele>
        <time>2013-04-01T12:46:39Z</time>
      </trkpt>
      <trkpt lat="45.92414" lon="6.52791">
        <ele>2327</ele>
        <time>2013-04-01T12:47:03Z</time>
      </trkpt>
      <trkpt lat="45.92413" lon="6.52793">
        <ele>2328</ele>
        <time>2013-04-01T12:47:07Z</time>
      </trkpt>
      <trkpt lat="45.92413" lon="6.52795">
        <ele>2328</ele>
        <time>2013-04-01T12:47:09Z</time>
      </trkpt>
      <trkpt lat="45.92414" lon="6.528">
        <ele>2330</ele>
        <time>2013-04-01T12:47:15Z</time>
      </trkpt>
      <trkpt lat="45.92414" lon="6.52816">
        <ele>2335</ele>
        <time>2013-04-01T12:47:29Z</time>
      </trkpt>
      <trkpt lat="45.92414" lon="6.52821">
        <ele>2338</ele>
        <time>2013-04-01T12:47:34Z</time>
      </trkpt>
      <trkpt lat="45.92414" lon="6.52829">
        <ele>2342</ele>
        <time>2013-04-01T12:47:43Z</time>
      </trkpt>
      <trkpt lat="45.92415" lon="6.52832">
        <ele>2344</ele>
        <time>2013-04-01T12:47:48Z</time>
      </trkpt>
      <trkpt lat="45.92416" lon="6.52839">
        <ele>2347</ele>
        <time>2013-04-01T12:47:56Z</time>
      </trkpt>
      <trkpt lat="45.92416" lon="6.52841">
        <ele>2348</ele>
        <time>2013-04-01T12:47:58Z</time>
      </trkpt>
      <trkpt lat="45.92414" lon="6.52858">
        <ele>2345</ele>
        <time>2013-04-01T12:48:20Z</time>
      </trkpt>
      <trkpt lat="45.92413" lon="6.52863">
        <ele>2347</ele>
        <time>2013-04-01T12:48:44Z</time>
      </trkpt>
      <trkpt lat="45.92418" lon="6.52872">
        <ele>2348</ele>
        <time>2013-04-01T12:49:06Z</time>
      </trkpt>
      <trkpt lat="45.9242" lon="6.52873">
        <ele>2349</ele>
        <time>2013-04-01T12:49:23Z</time>
      </trkpt>
      <trkpt lat="45.92425" lon="6.52885">
        <ele>2350</ele>
        <time>2013-04-01T12:49:36Z</time>
      </trkpt>
      <trkpt lat="45.92428" lon="6.52887">
        <ele>2353</ele>
        <time>2013-04-01T12:49:53Z</time>
      </trkpt>
      <trkpt lat="45.92428" lon="6.52889">
        <ele>2357</ele>
        <time>2013-04-01T12:50:07Z</time>
      </trkpt>
      <trkpt lat="45.92429" lon="6.52892">
        <ele>2361</ele>
        <time>2013-04-01T12:50:35Z</time>
      </trkpt>
      <trkpt lat="45.92426" lon="6.52894">
        <ele>2362</ele>
        <time>2013-04-01T12:50:50Z</time>
      </trkpt>
      <trkpt lat="45.92426" lon="6.52898">
        <ele>2362</ele>
        <time>2013-04-01T12:51:05Z</time>
      </trkpt>
      <trkpt lat="45.92427" lon="6.529">
        <ele>2363</ele>
        <time>2013-04-01T12:51:37Z</time>
      </trkpt>
      <trkpt lat="45.92428" lon="6.52905">
        <ele>2365</ele>
        <time>2013-04-01T12:51:45Z</time>
      </trkpt>
      <trkpt lat="45.92432" lon="6.52921">
        <ele>2368</ele>
        <time>2013-04-01T12:52:17Z</time>
      </trkpt>
      <trkpt lat="45.92432" lon="6.52924">
        <ele>2371</ele>
        <time>2013-04-01T12:53:51Z</time>
      </trkpt>
      <trkpt lat="45.92433" lon="6.52935">
        <ele>2376</ele>
        <time>2013-04-01T12:54:22Z</time>
      </trkpt>
      <trkpt lat="45.92438" lon="6.52949">
        <ele>2379</ele>
        <time>2013-04-01T12:55:18Z</time>
      </trkpt>
      <trkpt lat="45.9244" lon="6.5295">
        <ele>2380</ele>
        <time>2013-04-01T12:55:21Z</time>
      </trkpt>
      <trkpt lat="45.92441" lon="6.52954">
        <ele>2384</ele>
        <time>2013-04-01T12:55:32Z</time>
      </trkpt>
      <trkpt lat="45.92439" lon="6.52959">
        <ele>2384</ele>
        <time>2013-04-01T12:55:58Z</time>
      </trkpt>
      <trkpt lat="45.9244" lon="6.5296">
        <ele>2385</ele>
        <time>2013-04-01T12:56:01Z</time>
      </trkpt>
      <trkpt lat="45.92444" lon="6.52974">
        <ele>2388</ele>
        <time>2013-04-01T12:56:32Z</time>
      </trkpt>
      <trkpt lat="45.92446" lon="6.52987">
        <ele>2393</ele>
        <time>2013-04-01T12:56:54Z</time>
      </trkpt>
      <trkpt lat="45.92447" lon="6.52994">
        <ele>2396</ele>
        <time>2013-04-01T12:58:00Z</time>
      </trkpt>
      <trkpt lat="45.92448" lon="6.52996">
        <ele>2399</ele>
        <time>2013-04-01T12:58:08Z</time>
      </trkpt>
      <trkpt lat="45.9245" lon="6.52997">
        <ele>2401</ele>
        <time>2013-04-01T12:58:11Z</time>
      </trkpt>
      <trkpt lat="45.92451" lon="6.52998">
        <ele>2400</ele>
        <time>2013-04-01T12:58:13Z</time>
      </trkpt>
      <trkpt lat="45.92451" lon="6.53002">
        <ele>2400</ele>
        <time>2013-04-01T12:58:16Z</time>
      </trkpt>
      <trkpt lat="45.92452" lon="6.53005">
        <ele>2402</ele>
        <time>2013-04-01T12:58:38Z</time>
      </trkpt>
      <trkpt lat="45.92453" lon="6.53011">
        <ele>2407</ele>
        <time>2013-04-01T12:59:06Z</time>
      </trkpt>
      <trkpt lat="45.92451" lon="6.53025">
        <ele>2408</ele>
        <time>2013-04-01T12:59:37Z</time>
      </trkpt>
      <trkpt lat="45.92447" lon="6.53034">
        <ele>2410</ele>
        <time>2013-04-01T13:00:26Z</time>
      </trkpt>
      <trkpt lat="45.92443" lon="6.5304">
        <ele>2410</ele>
        <time>2013-04-01T13:00:36Z</time>
      </trkpt>
      <trkpt lat="45.92442" lon="6.53042">
        <ele>2413</ele>
        <time>2013-04-01T13:00:48Z</time>
      </trkpt>
      <trkpt lat="45.92437" lon="6.53044">
        <ele>2414</ele>
        <time>2013-04-01T13:01:20Z</time>
      </trkpt>
      <trkpt lat="45.92434" lon="6.53047">
        <ele>2416</ele>
        <time>2013-04-01T13:01:36Z</time>
      </trkpt>
      <trkpt lat="45.92424" lon="6.53061">
        <ele>2420</ele>
        <time>2013-04-01T13:01:57Z</time>
      </trkpt>
      <trkpt lat="45.92423" lon="6.53064">
        <ele>2421</ele>
        <time>2013-04-01T13:02:04Z</time>
      </trkpt>
      <trkpt lat="45.92424" lon="6.53066">
        <ele>2424</ele>
        <time>2013-04-01T13:02:18Z</time>
      </trkpt>
      <trkpt lat="45.92426" lon="6.53067">
        <ele>2426</ele>
        <time>2013-04-01T13:02:21Z</time>
      </trkpt>
      <trkpt lat="45.92427" lon="6.53068">
        <ele>2427</ele>
        <time>2013-04-01T13:02:28Z</time>
      </trkpt>
      <trkpt lat="45.92435" lon="6.53078">
        <ele>2432</ele>
        <time>2013-04-01T13:03:06Z</time>
      </trkpt>
      <trkpt lat="45.92439" lon="6.53082">
        <ele>2430</ele>
        <time>2013-04-01T13:05:27Z</time>
      </trkpt>
      <trkpt lat="45.9244" lon="6.53086">
        <ele>2430</ele>
        <time>2013-04-01T13:05:29Z</time>
      </trkpt>
      <trkpt lat="45.92443" lon="6.5309">
        <ele>2428</ele>
        <time>2013-04-01T13:05:33Z</time>
      </trkpt>
      <trkpt lat="45.92446" lon="6.53097">
        <ele>2426</ele>
        <time>2013-04-01T13:05:37Z</time>
      </trkpt>
      <trkpt lat="45.92449" lon="6.53095">
        <ele>2432</ele>
        <time>2013-04-01T13:05:44Z</time>
      </trkpt>
      <trkpt lat="45.92449" lon="6.53092">
        <ele>2434</ele>
        <time>2013-04-01T13:05:50Z</time>
      </trkpt>
      <trkpt lat="45.92451" lon="6.53092">
        <ele>2436</ele>
        <time>2013-04-01T13:06:02Z</time>
      </trkpt>
      <trkpt lat="45.92456" lon="6.53096">
        <ele>2434</ele>
        <time>2013-04-01T13:06:14Z</time>
      </trkpt>
      <trkpt lat="45.92456" lon="6.53094">
        <ele>2435</ele>
        <time>2013-04-01T13:06:16Z</time>
      </trkpt>
      <trkpt lat="45.92458" lon="6.53093">
        <ele>2434</ele>
        <time>2013-04-01T13:06:28Z</time>
      </trkpt>
      <trkpt lat="45.92459" lon="6.53092">
        <ele>2435</ele>
        <time>2013-04-01T13:06:37Z</time>
      </trkpt>
      <trkpt lat="45.92461" lon="6.53093">
        <ele>2436</ele>
        <time>2013-04-01T13:06:48Z</time>
      </trkpt>
      <trkpt lat="45.9247" lon="6.53091">
        <ele>2442</ele>
        <time>2013-04-01T13:07:02Z</time>
      </trkpt>
      <trkpt lat="45.92471" lon="6.53089">
        <ele>2442</ele>
        <time>2013-04-01T13:07:06Z</time>
      </trkpt>
      <trkpt lat="45.92471" lon="6.53086">
        <ele>2445</ele>
        <time>2013-04-01T13:07:17Z</time>
      </trkpt>
      <trkpt lat="45.92471" lon="6.53084">
        <ele>2447</ele>
        <time>2013-04-01T13:07:20Z</time>
      </trkpt>
      <trkpt lat="45.9247" lon="6.53081">
        <ele>2452</ele>
        <time>2013-04-01T13:09:13Z</time>
      </trkpt>
    </trkseg>
  </trk>
</gpx>